<?xml version="1.0" encoding="UTF-8" standalone="no" ?>
<gpx xmlns="http://www.topografix.com/GPX/1/1" creator="MapSource 6.11.6" version="1.1" xmlns:xsi="http://www.w3.org/2001/XMLSchema-instance" xsi:schemaLocation="http://www.topografix.com/GPX/1/1 http://www.topografix.com/GPX/1/1/gpx.xsd">

  <metadata>
    <link href="http://www.garmin.com">
      <text>Garmin International</text>
    </link>
    <time>2009-11-20T17:03:03Z</time>
    <bounds maxlat="50.526118" maxlon="6.129447" minlat="50.495376" minlon="6.063337"/>
  </metadata>

  <trk>
    <name>Hohe Venn GPS 23836</name>
    <extensions>
      <gpxx:TrackExtension xmlns:gpxx="http://www.garmin.com/xmlschemas/GpxExtensions/v3" xmlns:xsi="http://www.w3.org/2001/XMLSchema-instance" xsi:schemaLocation="http://www.garmin.com/xmlschemas/GpxExtensions/v3 http://www.garmin.com/xmlschemas/GpxExtensions/v3/GpxExtensionsv3.xsd">
        <gpxx:DisplayColor>White</gpxx:DisplayColor>
      </gpxx:TrackExtension>
    </extensions>
    <trkseg>
      <trkpt lat="50.519155" lon="6.063379">
        <ele>660.100000</ele>
        <time>2009-11-20T17:51:53Z</time>
      </trkpt>
      <trkpt lat="50.519155" lon="6.063379">
        <ele>658.600000</ele>
        <time>2009-11-20T17:51:53Z</time>
      </trkpt>
      <trkpt lat="50.519124" lon="6.063399">
        <ele>660.600000</ele>
        <time>2009-11-20T17:51:56Z</time>
      </trkpt>
      <trkpt lat="50.519096" lon="6.063404">
        <ele>661.000000</ele>
        <time>2009-11-20T17:51:58Z</time>
      </trkpt>
      <trkpt lat="50.519086" lon="6.063429">
        <ele>661.000000</ele>
        <time>2009-11-20T17:52:00Z</time>
      </trkpt>
      <trkpt lat="50.519070" lon="6.063508">
        <ele>661.000000</ele>
        <time>2009-11-20T17:52:05Z</time>
      </trkpt>
      <trkpt lat="50.519105" lon="6.063703">
        <ele>661.000000</ele>
        <time>2009-11-20T17:52:17Z</time>
      </trkpt>
      <trkpt lat="50.519108" lon="6.063670">
        <ele>661.000000</ele>
        <time>2009-11-20T17:52:19Z</time>
      </trkpt>
      <trkpt lat="50.519051" lon="6.063631">
        <ele>661.000000</ele>
        <time>2009-11-20T17:52:25Z</time>
      </trkpt>
      <trkpt lat="50.519094" lon="6.063690">
        <ele>661.000000</ele>
        <time>2009-11-20T17:52:31Z</time>
      </trkpt>
      <trkpt lat="50.519097" lon="6.063804">
        <ele>661.500000</ele>
        <time>2009-11-20T17:52:38Z</time>
      </trkpt>
      <trkpt lat="50.519112" lon="6.064016">
        <ele>661.500000</ele>
        <time>2009-11-20T17:52:50Z</time>
      </trkpt>
      <trkpt lat="50.519103" lon="6.064097">
        <ele>661.500000</ele>
        <time>2009-11-20T17:52:55Z</time>
      </trkpt>
      <trkpt lat="50.519081" lon="6.064263">
        <ele>661.500000</ele>
        <time>2009-11-20T17:53:06Z</time>
      </trkpt>
      <trkpt lat="50.519088" lon="6.064490">
        <ele>662.000000</ele>
        <time>2009-11-20T17:53:19Z</time>
      </trkpt>
      <trkpt lat="50.519094" lon="6.064556">
        <ele>661.500000</ele>
        <time>2009-11-20T17:53:23Z</time>
      </trkpt>
      <trkpt lat="50.519114" lon="6.064886">
        <ele>662.000000</ele>
        <time>2009-11-20T17:53:43Z</time>
      </trkpt>
      <trkpt lat="50.519124" lon="6.065032">
        <ele>662.500000</ele>
        <time>2009-11-20T17:53:52Z</time>
      </trkpt>
      <trkpt lat="50.519124" lon="6.065122">
        <ele>662.500000</ele>
        <time>2009-11-20T17:53:58Z</time>
      </trkpt>
      <trkpt lat="50.519135" lon="6.065478">
        <ele>663.000000</ele>
        <time>2009-11-20T17:54:19Z</time>
      </trkpt>
      <trkpt lat="50.519145" lon="6.065725">
        <ele>663.000000</ele>
        <time>2009-11-20T17:54:34Z</time>
      </trkpt>
      <trkpt lat="50.519155" lon="6.066015">
        <ele>663.000000</ele>
        <time>2009-11-20T17:54:51Z</time>
      </trkpt>
      <trkpt lat="50.519180" lon="6.066367">
        <ele>663.000000</ele>
        <time>2009-11-20T17:55:13Z</time>
      </trkpt>
      <trkpt lat="50.519335" lon="6.066576">
        <ele>664.400000</ele>
        <time>2009-11-20T17:55:32Z</time>
      </trkpt>
      <trkpt lat="50.519442" lon="6.066731">
        <ele>663.900000</ele>
        <time>2009-11-20T17:55:46Z</time>
      </trkpt>
      <trkpt lat="50.519473" lon="6.066841">
        <ele>663.900000</ele>
        <time>2009-11-20T17:55:53Z</time>
      </trkpt>
      <trkpt lat="50.519452" lon="6.067027">
        <ele>663.400000</ele>
        <time>2009-11-20T17:56:05Z</time>
      </trkpt>
      <trkpt lat="50.519445" lon="6.067041">
        <ele>663.900000</ele>
        <time>2009-11-20T17:56:06Z</time>
      </trkpt>
      <trkpt lat="50.519404" lon="6.067087">
        <ele>663.900000</ele>
        <time>2009-11-20T17:56:10Z</time>
      </trkpt>
      <trkpt lat="50.519253" lon="6.067220">
        <ele>664.400000</ele>
        <time>2009-11-20T17:56:27Z</time>
      </trkpt>
      <trkpt lat="50.519254" lon="6.067312">
        <ele>663.400000</ele>
        <time>2009-11-20T17:56:32Z</time>
      </trkpt>
      <trkpt lat="50.519267" lon="6.067641">
        <ele>663.400000</ele>
        <time>2009-11-20T17:56:52Z</time>
      </trkpt>
      <trkpt lat="50.519269" lon="6.067733">
        <ele>663.000000</ele>
        <time>2009-11-20T17:56:58Z</time>
      </trkpt>
      <trkpt lat="50.519284" lon="6.068049">
        <ele>663.400000</ele>
        <time>2009-11-20T17:57:17Z</time>
      </trkpt>
      <trkpt lat="50.519316" lon="6.068374">
        <ele>663.400000</ele>
        <time>2009-11-20T17:57:37Z</time>
      </trkpt>
      <trkpt lat="50.519360" lon="6.068701">
        <ele>662.500000</ele>
        <time>2009-11-20T17:57:57Z</time>
      </trkpt>
      <trkpt lat="50.519368" lon="6.068725">
        <ele>662.500000</ele>
        <time>2009-11-20T17:57:59Z</time>
      </trkpt>
      <trkpt lat="50.519449" lon="6.068860">
        <ele>661.500000</ele>
        <time>2009-11-20T17:58:10Z</time>
      </trkpt>
      <trkpt lat="50.519570" lon="6.069121">
        <ele>661.000000</ele>
        <time>2009-11-20T17:58:29Z</time>
      </trkpt>
      <trkpt lat="50.519665" lon="6.069368">
        <ele>660.600000</ele>
        <time>2009-11-20T17:58:47Z</time>
      </trkpt>
      <trkpt lat="50.519777" lon="6.069626">
        <ele>660.600000</ele>
        <time>2009-11-20T17:59:06Z</time>
      </trkpt>
      <trkpt lat="50.519850" lon="6.069824">
        <ele>660.600000</ele>
        <time>2009-11-20T17:59:19Z</time>
      </trkpt>
      <trkpt lat="50.519977" lon="6.070060">
        <ele>660.100000</ele>
        <time>2009-11-20T17:59:38Z</time>
      </trkpt>
      <trkpt lat="50.520141" lon="6.070251">
        <ele>660.600000</ele>
        <time>2009-11-20T17:59:57Z</time>
      </trkpt>
      <trkpt lat="50.520294" lon="6.070516">
        <ele>660.100000</ele>
        <time>2009-11-20T18:00:19Z</time>
      </trkpt>
      <trkpt lat="50.520446" lon="6.070776">
        <ele>660.100000</ele>
        <time>2009-11-20T18:00:40Z</time>
      </trkpt>
      <trkpt lat="50.520616" lon="6.071022">
        <ele>660.100000</ele>
        <time>2009-11-20T18:01:02Z</time>
      </trkpt>
      <trkpt lat="50.520786" lon="6.071216">
        <ele>660.100000</ele>
        <time>2009-11-20T18:01:22Z</time>
      </trkpt>
      <trkpt lat="50.520977" lon="6.071389">
        <ele>659.600000</ele>
        <time>2009-11-20T18:01:43Z</time>
      </trkpt>
      <trkpt lat="50.521015" lon="6.071438">
        <ele>659.100000</ele>
        <time>2009-11-20T18:01:48Z</time>
      </trkpt>
      <trkpt lat="50.521020" lon="6.071443">
        <ele>659.100000</ele>
        <time>2009-11-20T18:01:48Z</time>
      </trkpt>
      <trkpt lat="50.521082" lon="6.071501">
        <ele>658.600000</ele>
        <time>2009-11-20T18:01:55Z</time>
      </trkpt>
      <trkpt lat="50.521283" lon="6.071718">
        <ele>656.700000</ele>
        <time>2009-11-20T18:02:18Z</time>
      </trkpt>
      <trkpt lat="50.521463" lon="6.071917">
        <ele>656.200000</ele>
        <time>2009-11-20T18:02:39Z</time>
      </trkpt>
      <trkpt lat="50.521523" lon="6.071995">
        <ele>654.300000</ele>
        <time>2009-11-20T18:02:46Z</time>
      </trkpt>
      <trkpt lat="50.521735" lon="6.072253">
        <ele>653.800000</ele>
        <time>2009-11-20T18:03:12Z</time>
      </trkpt>
      <trkpt lat="50.521911" lon="6.072437">
        <ele>655.300000</ele>
        <time>2009-11-20T18:03:32Z</time>
      </trkpt>
      <trkpt lat="50.522120" lon="6.072676">
        <ele>654.300000</ele>
        <time>2009-11-20T18:03:56Z</time>
      </trkpt>
      <trkpt lat="50.522274" lon="6.072904">
        <ele>653.400000</ele>
        <time>2009-11-20T18:04:16Z</time>
      </trkpt>
      <trkpt lat="50.522438" lon="6.073160">
        <ele>652.400000</ele>
        <time>2009-11-20T18:04:38Z</time>
      </trkpt>
      <trkpt lat="50.522599" lon="6.073434">
        <ele>651.900000</ele>
        <time>2009-11-20T18:05:01Z</time>
      </trkpt>
      <trkpt lat="50.522752" lon="6.073698">
        <ele>651.900000</ele>
        <time>2009-11-20T18:05:22Z</time>
      </trkpt>
      <trkpt lat="50.522868" lon="6.073920">
        <ele>651.400000</ele>
        <time>2009-11-20T18:05:40Z</time>
      </trkpt>
      <trkpt lat="50.523016" lon="6.074132">
        <ele>651.000000</ele>
        <time>2009-11-20T18:05:59Z</time>
      </trkpt>
      <trkpt lat="50.523192" lon="6.074384">
        <ele>651.000000</ele>
        <time>2009-11-20T18:06:21Z</time>
      </trkpt>
      <trkpt lat="50.523368" lon="6.074610">
        <ele>651.000000</ele>
        <time>2009-11-20T18:06:43Z</time>
      </trkpt>
      <trkpt lat="50.523540" lon="6.074836">
        <ele>651.400000</ele>
        <time>2009-11-20T18:07:04Z</time>
      </trkpt>
      <trkpt lat="50.523702" lon="6.075064">
        <ele>651.400000</ele>
        <time>2009-11-20T18:07:25Z</time>
      </trkpt>
      <trkpt lat="50.523906" lon="6.075373">
        <ele>651.000000</ele>
        <time>2009-11-20T18:07:51Z</time>
      </trkpt>
      <trkpt lat="50.524098" lon="6.075596">
        <ele>650.000000</ele>
        <time>2009-11-20T18:08:14Z</time>
      </trkpt>
      <trkpt lat="50.524210" lon="6.075718">
        <ele>651.000000</ele>
        <time>2009-11-20T18:08:27Z</time>
      </trkpt>
      <trkpt lat="50.524331" lon="6.075828">
        <ele>649.500000</ele>
        <time>2009-11-20T18:08:40Z</time>
      </trkpt>
      <trkpt lat="50.524395" lon="6.075902">
        <ele>649.000000</ele>
        <time>2009-11-20T18:08:48Z</time>
      </trkpt>
      <trkpt lat="50.524617" lon="6.076137">
        <ele>648.100000</ele>
        <time>2009-11-20T18:09:13Z</time>
      </trkpt>
      <trkpt lat="50.524655" lon="6.076182">
        <ele>646.600000</ele>
        <time>2009-11-20T18:09:18Z</time>
      </trkpt>
      <trkpt lat="50.524830" lon="6.076385">
        <ele>646.600000</ele>
        <time>2009-11-20T18:09:38Z</time>
      </trkpt>
      <trkpt lat="50.524911" lon="6.076532">
        <ele>646.100000</ele>
        <time>2009-11-20T18:09:50Z</time>
      </trkpt>
      <trkpt lat="50.524875" lon="6.076590">
        <ele>646.100000</ele>
        <time>2009-11-20T18:09:55Z</time>
      </trkpt>
      <trkpt lat="50.524841" lon="6.076639">
        <ele>646.100000</ele>
        <time>2009-11-20T18:09:59Z</time>
      </trkpt>
      <trkpt lat="50.524693" lon="6.076819">
        <ele>646.600000</ele>
        <time>2009-11-20T18:10:17Z</time>
      </trkpt>
      <trkpt lat="50.524549" lon="6.076929">
        <ele>646.600000</ele>
        <time>2009-11-20T18:10:32Z</time>
      </trkpt>
      <trkpt lat="50.524377" lon="6.077097">
        <ele>646.100000</ele>
        <time>2009-11-20T18:10:51Z</time>
      </trkpt>
      <trkpt lat="50.524207" lon="6.077267">
        <ele>645.200000</ele>
        <time>2009-11-20T18:11:10Z</time>
      </trkpt>
      <trkpt lat="50.524033" lon="6.077417">
        <ele>644.700000</ele>
        <time>2009-11-20T18:11:29Z</time>
      </trkpt>
      <trkpt lat="50.523950" lon="6.077553">
        <ele>644.200000</ele>
        <time>2009-11-20T18:11:41Z</time>
      </trkpt>
      <trkpt lat="50.523760" lon="6.077728">
        <ele>644.700000</ele>
        <time>2009-11-20T18:12:02Z</time>
      </trkpt>
      <trkpt lat="50.523578" lon="6.077845">
        <ele>643.700000</ele>
        <time>2009-11-20T18:12:20Z</time>
      </trkpt>
      <trkpt lat="50.523386" lon="6.078008">
        <ele>643.300000</ele>
        <time>2009-11-20T18:12:41Z</time>
      </trkpt>
      <trkpt lat="50.523203" lon="6.078288">
        <ele>642.300000</ele>
        <time>2009-11-20T18:13:05Z</time>
      </trkpt>
      <trkpt lat="50.523159" lon="6.078428">
        <ele>642.300000</ele>
        <time>2009-11-20T18:13:15Z</time>
      </trkpt>
      <trkpt lat="50.523118" lon="6.078522">
        <ele>641.800000</ele>
        <time>2009-11-20T18:13:21Z</time>
      </trkpt>
      <trkpt lat="50.522971" lon="6.078744">
        <ele>641.800000</ele>
        <time>2009-11-20T18:13:41Z</time>
      </trkpt>
      <trkpt lat="50.522840" lon="6.078975">
        <ele>641.300000</ele>
        <time>2009-11-20T18:13:59Z</time>
      </trkpt>
      <trkpt lat="50.522690" lon="6.079115">
        <ele>639.900000</ele>
        <time>2009-11-20T18:14:16Z</time>
      </trkpt>
      <trkpt lat="50.522520" lon="6.079264">
        <ele>639.900000</ele>
        <time>2009-11-20T18:14:34Z</time>
      </trkpt>
      <trkpt lat="50.522391" lon="6.079374">
        <ele>639.400000</ele>
        <time>2009-11-20T18:14:48Z</time>
      </trkpt>
      <trkpt lat="50.522176" lon="6.079496">
        <ele>638.500000</ele>
        <time>2009-11-20T18:15:10Z</time>
      </trkpt>
      <trkpt lat="50.521998" lon="6.079596">
        <ele>638.500000</ele>
        <time>2009-11-20T18:15:28Z</time>
      </trkpt>
      <trkpt lat="50.521796" lon="6.079653">
        <ele>638.000000</ele>
        <time>2009-11-20T18:15:47Z</time>
      </trkpt>
      <trkpt lat="50.521689" lon="6.079568">
        <ele>638.500000</ele>
        <time>2009-11-20T18:15:59Z</time>
      </trkpt>
      <trkpt lat="50.521648" lon="6.079554">
        <ele>638.500000</ele>
        <time>2009-11-20T18:16:03Z</time>
      </trkpt>
      <trkpt lat="50.521626" lon="6.079518">
        <ele>638.900000</ele>
        <time>2009-11-20T18:16:06Z</time>
      </trkpt>
      <trkpt lat="50.521450" lon="6.079399">
        <ele>639.400000</ele>
        <time>2009-11-20T18:16:24Z</time>
      </trkpt>
      <trkpt lat="50.521410" lon="6.079350">
        <ele>639.900000</ele>
        <time>2009-11-20T18:16:29Z</time>
      </trkpt>
      <trkpt lat="50.521403" lon="6.079473">
        <ele>639.900000</ele>
        <time>2009-11-20T18:16:36Z</time>
      </trkpt>
      <trkpt lat="50.521412" lon="6.079627">
        <ele>639.400000</ele>
        <time>2009-11-20T18:16:45Z</time>
      </trkpt>
      <trkpt lat="50.521422" lon="6.079845">
        <ele>638.900000</ele>
        <time>2009-11-20T18:16:59Z</time>
      </trkpt>
      <trkpt lat="50.521425" lon="6.080069">
        <ele>638.900000</ele>
        <time>2009-11-20T18:17:12Z</time>
      </trkpt>
      <trkpt lat="50.521431" lon="6.080108">
        <ele>638.900000</ele>
        <time>2009-11-20T18:17:15Z</time>
      </trkpt>
      <trkpt lat="50.521444" lon="6.080341">
        <ele>638.500000</ele>
        <time>2009-11-20T18:17:29Z</time>
      </trkpt>
      <trkpt lat="50.521420" lon="6.080619">
        <ele>638.500000</ele>
        <time>2009-11-20T18:17:46Z</time>
      </trkpt>
      <trkpt lat="50.521477" lon="6.080883">
        <ele>638.000000</ele>
        <time>2009-11-20T18:18:02Z</time>
      </trkpt>
      <trkpt lat="50.521530" lon="6.081213">
        <ele>637.000000</ele>
        <time>2009-11-20T18:18:23Z</time>
      </trkpt>
      <trkpt lat="50.521533" lon="6.081228">
        <ele>637.000000</ele>
        <time>2009-11-20T18:18:24Z</time>
      </trkpt>
      <trkpt lat="50.521538" lon="6.081302">
        <ele>636.100000</ele>
        <time>2009-11-20T18:18:28Z</time>
      </trkpt>
      <trkpt lat="50.521568" lon="6.081555">
        <ele>635.600000</ele>
        <time>2009-11-20T18:18:44Z</time>
      </trkpt>
      <trkpt lat="50.521605" lon="6.081858">
        <ele>634.600000</ele>
        <time>2009-11-20T18:19:02Z</time>
      </trkpt>
      <trkpt lat="50.521615" lon="6.081945">
        <ele>635.100000</ele>
        <time>2009-11-20T18:19:08Z</time>
      </trkpt>
      <trkpt lat="50.521621" lon="6.082017">
        <ele>634.100000</ele>
        <time>2009-11-20T18:19:12Z</time>
      </trkpt>
      <trkpt lat="50.521662" lon="6.082314">
        <ele>633.600000</ele>
        <time>2009-11-20T18:19:30Z</time>
      </trkpt>
      <trkpt lat="50.521716" lon="6.082674">
        <ele>633.200000</ele>
        <time>2009-11-20T18:19:53Z</time>
      </trkpt>
      <trkpt lat="50.521742" lon="6.082979">
        <ele>632.700000</ele>
        <time>2009-11-20T18:20:11Z</time>
      </trkpt>
      <trkpt lat="50.521749" lon="6.083148">
        <ele>632.700000</ele>
        <time>2009-11-20T18:20:22Z</time>
      </trkpt>
      <trkpt lat="50.521748" lon="6.083243">
        <ele>631.700000</ele>
        <time>2009-11-20T18:20:27Z</time>
      </trkpt>
      <trkpt lat="50.521741" lon="6.083577">
        <ele>630.800000</ele>
        <time>2009-11-20T18:20:47Z</time>
      </trkpt>
      <trkpt lat="50.521746" lon="6.083685">
        <ele>631.200000</ele>
        <time>2009-11-20T18:20:54Z</time>
      </trkpt>
      <trkpt lat="50.521735" lon="6.083779">
        <ele>631.200000</ele>
        <time>2009-11-20T18:21:00Z</time>
      </trkpt>
      <trkpt lat="50.521710" lon="6.084101">
        <ele>630.800000</ele>
        <time>2009-11-20T18:21:19Z</time>
      </trkpt>
      <trkpt lat="50.521723" lon="6.084364">
        <ele>629.800000</ele>
        <time>2009-11-20T18:21:35Z</time>
      </trkpt>
      <trkpt lat="50.521743" lon="6.084677">
        <ele>628.800000</ele>
        <time>2009-11-20T18:21:54Z</time>
      </trkpt>
      <trkpt lat="50.521744" lon="6.084939">
        <ele>628.400000</ele>
        <time>2009-11-20T18:22:10Z</time>
      </trkpt>
      <trkpt lat="50.521728" lon="6.085262">
        <ele>627.400000</ele>
        <time>2009-11-20T18:22:29Z</time>
      </trkpt>
      <trkpt lat="50.521739" lon="6.085528">
        <ele>626.400000</ele>
        <time>2009-11-20T18:22:46Z</time>
      </trkpt>
      <trkpt lat="50.521768" lon="6.085727">
        <ele>626.400000</ele>
        <time>2009-11-20T18:22:58Z</time>
      </trkpt>
      <trkpt lat="50.521770" lon="6.085719">
        <ele>626.900000</ele>
        <time>2009-11-20T18:22:58Z</time>
      </trkpt>
      <trkpt lat="50.521776" lon="6.085885">
        <ele>626.000000</ele>
        <time>2009-11-20T18:23:08Z</time>
      </trkpt>
      <trkpt lat="50.521867" lon="6.086041">
        <ele>625.500000</ele>
        <time>2009-11-20T18:23:21Z</time>
      </trkpt>
      <trkpt lat="50.521891" lon="6.086110">
        <ele>625.500000</ele>
        <time>2009-11-20T18:23:26Z</time>
      </trkpt>
      <trkpt lat="50.521902" lon="6.086164">
        <ele>625.000000</ele>
        <time>2009-11-20T18:23:29Z</time>
      </trkpt>
      <trkpt lat="50.521888" lon="6.086281">
        <ele>625.000000</ele>
        <time>2009-11-20T18:23:37Z</time>
      </trkpt>
      <trkpt lat="50.521897" lon="6.086551">
        <ele>624.500000</ele>
        <time>2009-11-20T18:23:53Z</time>
      </trkpt>
      <trkpt lat="50.521880" lon="6.086642">
        <ele>624.000000</ele>
        <time>2009-11-20T18:23:59Z</time>
      </trkpt>
      <trkpt lat="50.521887" lon="6.086838">
        <ele>624.000000</ele>
        <time>2009-11-20T18:24:10Z</time>
      </trkpt>
      <trkpt lat="50.521866" lon="6.087158">
        <ele>622.600000</ele>
        <time>2009-11-20T18:24:30Z</time>
      </trkpt>
      <trkpt lat="50.521888" lon="6.087436">
        <ele>621.100000</ele>
        <time>2009-11-20T18:24:47Z</time>
      </trkpt>
      <trkpt lat="50.521969" lon="6.087748">
        <ele>621.100000</ele>
        <time>2009-11-20T18:25:07Z</time>
      </trkpt>
      <trkpt lat="50.522023" lon="6.088041">
        <ele>619.700000</ele>
        <time>2009-11-20T18:25:25Z</time>
      </trkpt>
      <trkpt lat="50.522138" lon="6.088281">
        <ele>619.700000</ele>
        <time>2009-11-20T18:25:43Z</time>
      </trkpt>
      <trkpt lat="50.522162" lon="6.088333">
        <ele>618.700000</ele>
        <time>2009-11-20T18:25:47Z</time>
      </trkpt>
      <trkpt lat="50.522210" lon="6.088366">
        <ele>620.200000</ele>
        <time>2009-11-20T18:25:52Z</time>
      </trkpt>
      <trkpt lat="50.522277" lon="6.088403">
        <ele>619.200000</ele>
        <time>2009-11-20T18:25:59Z</time>
      </trkpt>
      <trkpt lat="50.522265" lon="6.088474">
        <ele>618.300000</ele>
        <time>2009-11-20T18:26:03Z</time>
      </trkpt>
      <trkpt lat="50.522264" lon="6.088576">
        <ele>618.700000</ele>
        <time>2009-11-20T18:26:10Z</time>
      </trkpt>
      <trkpt lat="50.522283" lon="6.088760">
        <ele>618.700000</ele>
        <time>2009-11-20T18:26:21Z</time>
      </trkpt>
      <trkpt lat="50.522343" lon="6.088993">
        <ele>618.300000</ele>
        <time>2009-11-20T18:26:36Z</time>
      </trkpt>
      <trkpt lat="50.522456" lon="6.089261">
        <ele>617.800000</ele>
        <time>2009-11-20T18:26:55Z</time>
      </trkpt>
      <trkpt lat="50.522573" lon="6.089513">
        <ele>617.300000</ele>
        <time>2009-11-20T18:27:14Z</time>
      </trkpt>
      <trkpt lat="50.522661" lon="6.089738">
        <ele>616.300000</ele>
        <time>2009-11-20T18:27:30Z</time>
      </trkpt>
      <trkpt lat="50.522768" lon="6.090021">
        <ele>614.400000</ele>
        <time>2009-11-20T18:27:50Z</time>
      </trkpt>
      <trkpt lat="50.522811" lon="6.090169">
        <ele>615.400000</ele>
        <time>2009-11-20T18:28:00Z</time>
      </trkpt>
      <trkpt lat="50.522803" lon="6.090275">
        <ele>615.400000</ele>
        <time>2009-11-20T18:28:06Z</time>
      </trkpt>
      <trkpt lat="50.522798" lon="6.090409">
        <ele>615.900000</ele>
        <time>2009-11-20T18:28:14Z</time>
      </trkpt>
      <trkpt lat="50.522731" lon="6.090727">
        <ele>614.400000</ele>
        <time>2009-11-20T18:28:35Z</time>
      </trkpt>
      <trkpt lat="50.522679" lon="6.091045">
        <ele>613.000000</ele>
        <time>2009-11-20T18:28:54Z</time>
      </trkpt>
      <trkpt lat="50.522643" lon="6.091218">
        <ele>612.500000</ele>
        <time>2009-11-20T18:29:05Z</time>
      </trkpt>
      <trkpt lat="50.522610" lon="6.091591">
        <ele>613.000000</ele>
        <time>2009-11-20T18:29:28Z</time>
      </trkpt>
      <trkpt lat="50.522590" lon="6.091884">
        <ele>613.000000</ele>
        <time>2009-11-20T18:29:46Z</time>
      </trkpt>
      <trkpt lat="50.522566" lon="6.092115">
        <ele>612.000000</ele>
        <time>2009-11-20T18:30:00Z</time>
      </trkpt>
      <trkpt lat="50.522574" lon="6.092269">
        <ele>612.000000</ele>
        <time>2009-11-20T18:30:09Z</time>
      </trkpt>
      <trkpt lat="50.522558" lon="6.092278">
        <ele>611.500000</ele>
        <time>2009-11-20T18:30:11Z</time>
      </trkpt>
      <trkpt lat="50.522545" lon="6.092465">
        <ele>612.000000</ele>
        <time>2009-11-20T18:30:22Z</time>
      </trkpt>
      <trkpt lat="50.522538" lon="6.092516">
        <ele>611.500000</ele>
        <time>2009-11-20T18:30:25Z</time>
      </trkpt>
      <trkpt lat="50.522544" lon="6.092684">
        <ele>612.000000</ele>
        <time>2009-11-20T18:30:35Z</time>
      </trkpt>
      <trkpt lat="50.522530" lon="6.092885">
        <ele>612.000000</ele>
        <time>2009-11-20T18:30:48Z</time>
      </trkpt>
      <trkpt lat="50.522507" lon="6.093025">
        <ele>612.000000</ele>
        <time>2009-11-20T18:30:56Z</time>
      </trkpt>
      <trkpt lat="50.522412" lon="6.093342">
        <ele>611.100000</ele>
        <time>2009-11-20T18:31:18Z</time>
      </trkpt>
      <trkpt lat="50.522315" lon="6.093669">
        <ele>610.100000</ele>
        <time>2009-11-20T18:31:39Z</time>
      </trkpt>
      <trkpt lat="50.522202" lon="6.093977">
        <ele>609.600000</ele>
        <time>2009-11-20T18:32:01Z</time>
      </trkpt>
      <trkpt lat="50.522075" lon="6.094233">
        <ele>609.100000</ele>
        <time>2009-11-20T18:32:20Z</time>
      </trkpt>
      <trkpt lat="50.521938" lon="6.094517">
        <ele>609.100000</ele>
        <time>2009-11-20T18:32:42Z</time>
      </trkpt>
      <trkpt lat="50.521878" lon="6.094648">
        <ele>609.600000</ele>
        <time>2009-11-20T18:32:52Z</time>
      </trkpt>
      <trkpt lat="50.521802" lon="6.094839">
        <ele>609.600000</ele>
        <time>2009-11-20T18:33:05Z</time>
      </trkpt>
      <trkpt lat="50.521746" lon="6.095132">
        <ele>608.700000</ele>
        <time>2009-11-20T18:33:24Z</time>
      </trkpt>
      <trkpt lat="50.521717" lon="6.095441">
        <ele>608.200000</ele>
        <time>2009-11-20T18:33:42Z</time>
      </trkpt>
      <trkpt lat="50.521712" lon="6.095749">
        <ele>607.200000</ele>
        <time>2009-11-20T18:34:01Z</time>
      </trkpt>
      <trkpt lat="50.521706" lon="6.095916">
        <ele>606.700000</ele>
        <time>2009-11-20T18:34:11Z</time>
      </trkpt>
      <trkpt lat="50.521703" lon="6.095956">
        <ele>607.200000</ele>
        <time>2009-11-20T18:34:13Z</time>
      </trkpt>
      <trkpt lat="50.521709" lon="6.096052">
        <ele>607.200000</ele>
        <time>2009-11-20T18:34:19Z</time>
      </trkpt>
      <trkpt lat="50.521713" lon="6.096167">
        <ele>607.700000</ele>
        <time>2009-11-20T18:34:26Z</time>
      </trkpt>
      <trkpt lat="50.521715" lon="6.096067">
        <ele>607.700000</ele>
        <time>2009-11-20T18:34:32Z</time>
      </trkpt>
      <trkpt lat="50.521710" lon="6.096072">
        <ele>607.200000</ele>
        <time>2009-11-20T18:34:33Z</time>
      </trkpt>
      <trkpt lat="50.521714" lon="6.096097">
        <ele>608.200000</ele>
        <time>2009-11-20T18:34:34Z</time>
      </trkpt>
      <trkpt lat="50.521720" lon="6.096128">
        <ele>608.200000</ele>
        <time>2009-11-20T18:34:36Z</time>
      </trkpt>
      <trkpt lat="50.521702" lon="6.096352">
        <ele>607.200000</ele>
        <time>2009-11-20T18:34:50Z</time>
      </trkpt>
      <trkpt lat="50.521609" lon="6.096680">
        <ele>605.800000</ele>
        <time>2009-11-20T18:35:12Z</time>
      </trkpt>
      <trkpt lat="50.521556" lon="6.097045">
        <ele>604.800000</ele>
        <time>2009-11-20T18:35:34Z</time>
      </trkpt>
      <trkpt lat="50.521519" lon="6.097388">
        <ele>604.300000</ele>
        <time>2009-11-20T18:35:55Z</time>
      </trkpt>
      <trkpt lat="50.521449" lon="6.097709">
        <ele>604.300000</ele>
        <time>2009-11-20T18:36:16Z</time>
      </trkpt>
      <trkpt lat="50.521422" lon="6.098046">
        <ele>604.800000</ele>
        <time>2009-11-20T18:36:36Z</time>
      </trkpt>
      <trkpt lat="50.521375" lon="6.098338">
        <ele>604.300000</ele>
        <time>2009-11-20T18:36:54Z</time>
      </trkpt>
      <trkpt lat="50.521368" lon="6.098658">
        <ele>603.800000</ele>
        <time>2009-11-20T18:37:14Z</time>
      </trkpt>
      <trkpt lat="50.521308" lon="6.098968">
        <ele>602.400000</ele>
        <time>2009-11-20T18:37:33Z</time>
      </trkpt>
      <trkpt lat="50.521255" lon="6.099253">
        <ele>602.900000</ele>
        <time>2009-11-20T18:37:51Z</time>
      </trkpt>
      <trkpt lat="50.521146" lon="6.099547">
        <ele>602.900000</ele>
        <time>2009-11-20T18:38:12Z</time>
      </trkpt>
      <trkpt lat="50.521099" lon="6.099714">
        <ele>602.900000</ele>
        <time>2009-11-20T18:38:23Z</time>
      </trkpt>
      <trkpt lat="50.521069" lon="6.099808">
        <ele>602.900000</ele>
        <time>2009-11-20T18:38:29Z</time>
      </trkpt>
      <trkpt lat="50.520981" lon="6.100058">
        <ele>602.400000</ele>
        <time>2009-11-20T18:38:46Z</time>
      </trkpt>
      <trkpt lat="50.520859" lon="6.100331">
        <ele>601.900000</ele>
        <time>2009-11-20T18:39:06Z</time>
      </trkpt>
      <trkpt lat="50.520800" lon="6.100517">
        <ele>601.400000</ele>
        <time>2009-11-20T18:39:19Z</time>
      </trkpt>
      <trkpt lat="50.520767" lon="6.100695">
        <ele>601.400000</ele>
        <time>2009-11-20T18:39:30Z</time>
      </trkpt>
      <trkpt lat="50.520761" lon="6.101041">
        <ele>601.400000</ele>
        <time>2009-11-20T18:39:51Z</time>
      </trkpt>
      <trkpt lat="50.520774" lon="6.101332">
        <ele>600.000000</ele>
        <time>2009-11-20T18:40:08Z</time>
      </trkpt>
      <trkpt lat="50.520806" lon="6.101636">
        <ele>599.000000</ele>
        <time>2009-11-20T18:40:27Z</time>
      </trkpt>
      <trkpt lat="50.520845" lon="6.101912">
        <ele>599.000000</ele>
        <time>2009-11-20T18:40:44Z</time>
      </trkpt>
      <trkpt lat="50.520894" lon="6.102215">
        <ele>599.000000</ele>
        <time>2009-11-20T18:41:03Z</time>
      </trkpt>
      <trkpt lat="50.520966" lon="6.102435">
        <ele>599.000000</ele>
        <time>2009-11-20T18:41:18Z</time>
      </trkpt>
      <trkpt lat="50.520982" lon="6.102717">
        <ele>598.600000</ele>
        <time>2009-11-20T18:41:35Z</time>
      </trkpt>
      <trkpt lat="50.521031" lon="6.103036">
        <ele>598.600000</ele>
        <time>2009-11-20T18:41:55Z</time>
      </trkpt>
      <trkpt lat="50.521175" lon="6.103300">
        <ele>598.100000</ele>
        <time>2009-11-20T18:42:16Z</time>
      </trkpt>
      <trkpt lat="50.521313" lon="6.103578">
        <ele>599.000000</ele>
        <time>2009-11-20T18:42:37Z</time>
      </trkpt>
      <trkpt lat="50.521430" lon="6.103759">
        <ele>598.600000</ele>
        <time>2009-11-20T18:42:52Z</time>
      </trkpt>
      <trkpt lat="50.521549" lon="6.104041">
        <ele>598.600000</ele>
        <time>2009-11-20T18:43:13Z</time>
      </trkpt>
      <trkpt lat="50.521585" lon="6.104352">
        <ele>597.600000</ele>
        <time>2009-11-20T18:43:32Z</time>
      </trkpt>
      <trkpt lat="50.521653" lon="6.104633">
        <ele>597.100000</ele>
        <time>2009-11-20T18:43:50Z</time>
      </trkpt>
      <trkpt lat="50.521666" lon="6.104675">
        <ele>597.100000</ele>
        <time>2009-11-20T18:43:53Z</time>
      </trkpt>
      <trkpt lat="50.521653" lon="6.105018">
        <ele>596.200000</ele>
        <time>2009-11-20T18:44:14Z</time>
      </trkpt>
      <trkpt lat="50.521653" lon="6.105344">
        <ele>595.700000</ele>
        <time>2009-11-20T18:44:33Z</time>
      </trkpt>
      <trkpt lat="50.521764" lon="6.105591">
        <ele>594.700000</ele>
        <time>2009-11-20T18:44:51Z</time>
      </trkpt>
      <trkpt lat="50.521889" lon="6.105796">
        <ele>594.200000</ele>
        <time>2009-11-20T18:45:09Z</time>
      </trkpt>
      <trkpt lat="50.521883" lon="6.105757">
        <ele>593.800000</ele>
        <time>2009-11-20T18:45:11Z</time>
      </trkpt>
      <trkpt lat="50.521867" lon="6.105755">
        <ele>593.800000</ele>
        <time>2009-11-20T18:45:13Z</time>
      </trkpt>
      <trkpt lat="50.521925" lon="6.105850">
        <ele>594.700000</ele>
        <time>2009-11-20T18:45:20Z</time>
      </trkpt>
      <trkpt lat="50.522067" lon="6.105962">
        <ele>595.200000</ele>
        <time>2009-11-20T18:45:36Z</time>
      </trkpt>
      <trkpt lat="50.522192" lon="6.106107">
        <ele>595.200000</ele>
        <time>2009-11-20T18:45:50Z</time>
      </trkpt>
      <trkpt lat="50.522253" lon="6.106443">
        <ele>594.200000</ele>
        <time>2009-11-20T18:46:11Z</time>
      </trkpt>
      <trkpt lat="50.522358" lon="6.106757">
        <ele>594.200000</ele>
        <time>2009-11-20T18:46:33Z</time>
      </trkpt>
      <trkpt lat="50.522436" lon="6.106997">
        <ele>593.300000</ele>
        <time>2009-11-20T18:46:49Z</time>
      </trkpt>
      <trkpt lat="50.522509" lon="6.107309">
        <ele>592.800000</ele>
        <time>2009-11-20T18:47:09Z</time>
      </trkpt>
      <trkpt lat="50.522592" lon="6.107533">
        <ele>593.300000</ele>
        <time>2009-11-20T18:47:25Z</time>
      </trkpt>
      <trkpt lat="50.522641" lon="6.107624">
        <ele>593.300000</ele>
        <time>2009-11-20T18:47:32Z</time>
      </trkpt>
      <trkpt lat="50.522692" lon="6.107743">
        <ele>593.800000</ele>
        <time>2009-11-20T18:47:40Z</time>
      </trkpt>
      <trkpt lat="50.522733" lon="6.107977">
        <ele>592.800000</ele>
        <time>2009-11-20T18:47:55Z</time>
      </trkpt>
      <trkpt lat="50.522752" lon="6.108072">
        <ele>592.300000</ele>
        <time>2009-11-20T18:48:01Z</time>
      </trkpt>
      <trkpt lat="50.522782" lon="6.108257">
        <ele>589.900000</ele>
        <time>2009-11-20T18:48:13Z</time>
      </trkpt>
      <trkpt lat="50.522803" lon="6.108300">
        <ele>590.900000</ele>
        <time>2009-11-20T18:48:16Z</time>
      </trkpt>
      <trkpt lat="50.522814" lon="6.108503">
        <ele>589.900000</ele>
        <time>2009-11-20T18:48:28Z</time>
      </trkpt>
      <trkpt lat="50.522819" lon="6.108725">
        <ele>589.900000</ele>
        <time>2009-11-20T18:48:42Z</time>
      </trkpt>
      <trkpt lat="50.522824" lon="6.108877">
        <ele>589.400000</ele>
        <time>2009-11-20T18:48:51Z</time>
      </trkpt>
      <trkpt lat="50.522815" lon="6.108873">
        <ele>590.400000</ele>
        <time>2009-11-20T18:48:52Z</time>
      </trkpt>
      <trkpt lat="50.522840" lon="6.108973">
        <ele>589.400000</ele>
        <time>2009-11-20T18:48:58Z</time>
      </trkpt>
      <trkpt lat="50.522840" lon="6.108995">
        <ele>590.900000</ele>
        <time>2009-11-20T18:48:59Z</time>
      </trkpt>
      <trkpt lat="50.522859" lon="6.109030">
        <ele>590.400000</ele>
        <time>2009-11-20T18:49:02Z</time>
      </trkpt>
      <trkpt lat="50.522896" lon="6.109147">
        <ele>590.400000</ele>
        <time>2009-11-20T18:49:10Z</time>
      </trkpt>
      <trkpt lat="50.522899" lon="6.109199">
        <ele>590.400000</ele>
        <time>2009-11-20T18:49:13Z</time>
      </trkpt>
      <trkpt lat="50.522913" lon="6.109235">
        <ele>589.900000</ele>
        <time>2009-11-20T18:49:16Z</time>
      </trkpt>
      <trkpt lat="50.522931" lon="6.109405">
        <ele>589.900000</ele>
        <time>2009-11-20T18:49:26Z</time>
      </trkpt>
      <trkpt lat="50.522971" lon="6.109602">
        <ele>589.400000</ele>
        <time>2009-11-20T18:49:39Z</time>
      </trkpt>
      <trkpt lat="50.522987" lon="6.109650">
        <ele>589.900000</ele>
        <time>2009-11-20T18:49:42Z</time>
      </trkpt>
      <trkpt lat="50.523001" lon="6.109674">
        <ele>589.400000</ele>
        <time>2009-11-20T18:49:44Z</time>
      </trkpt>
      <trkpt lat="50.523052" lon="6.109819">
        <ele>589.400000</ele>
        <time>2009-11-20T18:49:54Z</time>
      </trkpt>
      <trkpt lat="50.523093" lon="6.109894">
        <ele>590.400000</ele>
        <time>2009-11-20T18:50:00Z</time>
      </trkpt>
      <trkpt lat="50.523088" lon="6.109916">
        <ele>588.500000</ele>
        <time>2009-11-20T18:50:01Z</time>
      </trkpt>
      <trkpt lat="50.523093" lon="6.109925">
        <ele>588.000000</ele>
        <time>2009-11-20T18:50:02Z</time>
      </trkpt>
      <trkpt lat="50.523064" lon="6.109958">
        <ele>588.000000</ele>
        <time>2009-11-20T18:50:05Z</time>
      </trkpt>
      <trkpt lat="50.523107" lon="6.110130">
        <ele>587.000000</ele>
        <time>2009-11-20T18:50:16Z</time>
      </trkpt>
      <trkpt lat="50.523167" lon="6.110315">
        <ele>587.000000</ele>
        <time>2009-11-20T18:50:29Z</time>
      </trkpt>
      <trkpt lat="50.523268" lon="6.110496">
        <ele>586.500000</ele>
        <time>2009-11-20T18:50:44Z</time>
      </trkpt>
      <trkpt lat="50.523331" lon="6.110590">
        <ele>585.600000</ele>
        <time>2009-11-20T18:50:52Z</time>
      </trkpt>
      <trkpt lat="50.523450" lon="6.110696">
        <ele>586.100000</ele>
        <time>2009-11-20T18:51:05Z</time>
      </trkpt>
      <trkpt lat="50.523596" lon="6.110749">
        <ele>585.600000</ele>
        <time>2009-11-20T18:51:19Z</time>
      </trkpt>
      <trkpt lat="50.523692" lon="6.110928">
        <ele>584.100000</ele>
        <time>2009-11-20T18:51:33Z</time>
      </trkpt>
      <trkpt lat="50.523801" lon="6.111164">
        <ele>582.700000</ele>
        <time>2009-11-20T18:51:51Z</time>
      </trkpt>
      <trkpt lat="50.523904" lon="6.111334">
        <ele>582.200000</ele>
        <time>2009-11-20T18:52:05Z</time>
      </trkpt>
      <trkpt lat="50.523972" lon="6.111479">
        <ele>581.700000</ele>
        <time>2009-11-20T18:52:16Z</time>
      </trkpt>
      <trkpt lat="50.524065" lon="6.111605">
        <ele>582.700000</ele>
        <time>2009-11-20T18:52:27Z</time>
      </trkpt>
      <trkpt lat="50.524141" lon="6.111753">
        <ele>581.700000</ele>
        <time>2009-11-20T18:52:39Z</time>
      </trkpt>
      <trkpt lat="50.524150" lon="6.111916">
        <ele>580.800000</ele>
        <time>2009-11-20T18:52:49Z</time>
      </trkpt>
      <trkpt lat="50.524190" lon="6.112069">
        <ele>580.300000</ele>
        <time>2009-11-20T18:52:59Z</time>
      </trkpt>
      <trkpt lat="50.524200" lon="6.112168">
        <ele>580.300000</ele>
        <time>2009-11-20T18:53:05Z</time>
      </trkpt>
      <trkpt lat="50.524231" lon="6.112272">
        <ele>580.300000</ele>
        <time>2009-11-20T18:53:12Z</time>
      </trkpt>
      <trkpt lat="50.524286" lon="6.112501">
        <ele>580.800000</ele>
        <time>2009-11-20T18:53:26Z</time>
      </trkpt>
      <trkpt lat="50.524344" lon="6.112712">
        <ele>580.300000</ele>
        <time>2009-11-20T18:53:40Z</time>
      </trkpt>
      <trkpt lat="50.524418" lon="6.112832">
        <ele>580.800000</ele>
        <time>2009-11-20T18:53:50Z</time>
      </trkpt>
      <trkpt lat="50.524515" lon="6.113020">
        <ele>579.800000</ele>
        <time>2009-11-20T18:54:05Z</time>
      </trkpt>
      <trkpt lat="50.524632" lon="6.113129">
        <ele>580.800000</ele>
        <time>2009-11-20T18:54:18Z</time>
      </trkpt>
      <trkpt lat="50.524714" lon="6.113304">
        <ele>580.800000</ele>
        <time>2009-11-20T18:54:31Z</time>
      </trkpt>
      <trkpt lat="50.524790" lon="6.113571">
        <ele>579.300000</ele>
        <time>2009-11-20T18:54:49Z</time>
      </trkpt>
      <trkpt lat="50.524868" lon="6.113864">
        <ele>579.300000</ele>
        <time>2009-11-20T18:55:08Z</time>
      </trkpt>
      <trkpt lat="50.524929" lon="6.114181">
        <ele>578.900000</ele>
        <time>2009-11-20T18:55:28Z</time>
      </trkpt>
      <trkpt lat="50.525007" lon="6.114481">
        <ele>577.400000</ele>
        <time>2009-11-20T18:55:47Z</time>
      </trkpt>
      <trkpt lat="50.525043" lon="6.114580">
        <ele>576.400000</ele>
        <time>2009-11-20T18:55:54Z</time>
      </trkpt>
      <trkpt lat="50.525239" lon="6.114707">
        <ele>576.900000</ele>
        <time>2009-11-20T18:56:14Z</time>
      </trkpt>
      <trkpt lat="50.525402" lon="6.114901">
        <ele>575.500000</ele>
        <time>2009-11-20T18:56:34Z</time>
      </trkpt>
      <trkpt lat="50.525556" lon="6.115090">
        <ele>575.500000</ele>
        <time>2009-11-20T18:56:52Z</time>
      </trkpt>
      <trkpt lat="50.525735" lon="6.115290">
        <ele>575.000000</ele>
        <time>2009-11-20T18:57:13Z</time>
      </trkpt>
      <trkpt lat="50.525874" lon="6.115493">
        <ele>575.500000</ele>
        <time>2009-11-20T18:57:31Z</time>
      </trkpt>
      <trkpt lat="50.525941" lon="6.115558">
        <ele>574.500000</ele>
        <time>2009-11-20T18:57:38Z</time>
      </trkpt>
      <trkpt lat="50.526010" lon="6.115635">
        <ele>574.500000</ele>
        <time>2009-11-20T18:57:46Z</time>
      </trkpt>
      <trkpt lat="50.526068" lon="6.115909">
        <ele>574.000000</ele>
        <time>2009-11-20T18:58:04Z</time>
      </trkpt>
      <trkpt lat="50.526067" lon="6.115997">
        <ele>575.000000</ele>
        <time>2009-11-20T18:58:09Z</time>
      </trkpt>
      <trkpt lat="50.526118" lon="6.116159">
        <ele>573.600000</ele>
        <time>2009-11-20T18:58:20Z</time>
      </trkpt>
      <trkpt lat="50.526099" lon="6.116153">
        <ele>573.600000</ele>
        <time>2009-11-20T18:58:22Z</time>
      </trkpt>
      <trkpt lat="50.526038" lon="6.116205">
        <ele>573.600000</ele>
        <time>2009-11-20T18:58:28Z</time>
      </trkpt>
      <trkpt lat="50.525974" lon="6.116250">
        <ele>573.100000</ele>
        <time>2009-11-20T18:58:35Z</time>
      </trkpt>
      <trkpt lat="50.525947" lon="6.116227">
        <ele>573.100000</ele>
        <time>2009-11-20T18:58:38Z</time>
      </trkpt>
      <trkpt lat="50.525819" lon="6.116095">
        <ele>574.000000</ele>
        <time>2009-11-20T18:58:52Z</time>
      </trkpt>
      <trkpt lat="50.525807" lon="6.116083">
        <ele>574.500000</ele>
        <time>2009-11-20T18:58:54Z</time>
      </trkpt>
      <trkpt lat="50.525753" lon="6.116049">
        <ele>576.000000</ele>
        <time>2009-11-20T18:58:59Z</time>
      </trkpt>
      <trkpt lat="50.525656" lon="6.116072">
        <ele>578.900000</ele>
        <time>2009-11-20T18:59:09Z</time>
      </trkpt>
      <trkpt lat="50.525586" lon="6.116206">
        <ele>581.300000</ele>
        <time>2009-11-20T18:59:19Z</time>
      </trkpt>
      <trkpt lat="50.525515" lon="6.116222">
        <ele>581.700000</ele>
        <time>2009-11-20T18:59:26Z</time>
      </trkpt>
      <trkpt lat="50.525490" lon="6.116209">
        <ele>582.200000</ele>
        <time>2009-11-20T18:59:28Z</time>
      </trkpt>
      <trkpt lat="50.525397" lon="6.116212">
        <ele>581.700000</ele>
        <time>2009-11-20T18:59:37Z</time>
      </trkpt>
      <trkpt lat="50.525363" lon="6.116201">
        <ele>583.200000</ele>
        <time>2009-11-20T18:59:41Z</time>
      </trkpt>
      <trkpt lat="50.525240" lon="6.116121">
        <ele>583.200000</ele>
        <time>2009-11-20T18:59:53Z</time>
      </trkpt>
      <trkpt lat="50.525143" lon="6.116118">
        <ele>584.100000</ele>
        <time>2009-11-20T19:00:02Z</time>
      </trkpt>
      <trkpt lat="50.525021" lon="6.116267">
        <ele>586.100000</ele>
        <time>2009-11-20T19:00:17Z</time>
      </trkpt>
      <trkpt lat="50.524968" lon="6.116299">
        <ele>586.100000</ele>
        <time>2009-11-20T19:00:22Z</time>
      </trkpt>
      <trkpt lat="50.524866" lon="6.116338">
        <ele>587.000000</ele>
        <time>2009-11-20T19:00:32Z</time>
      </trkpt>
      <trkpt lat="50.524724" lon="6.116357">
        <ele>588.900000</ele>
        <time>2009-11-20T19:00:46Z</time>
      </trkpt>
      <trkpt lat="50.524710" lon="6.116378">
        <ele>588.900000</ele>
        <time>2009-11-20T19:00:48Z</time>
      </trkpt>
      <trkpt lat="50.524598" lon="6.116394">
        <ele>589.400000</ele>
        <time>2009-11-20T19:00:58Z</time>
      </trkpt>
      <trkpt lat="50.524557" lon="6.116403">
        <ele>589.400000</ele>
        <time>2009-11-20T19:01:02Z</time>
      </trkpt>
      <trkpt lat="50.524535" lon="6.116399">
        <ele>588.900000</ele>
        <time>2009-11-20T19:01:04Z</time>
      </trkpt>
      <trkpt lat="50.524339" lon="6.116408">
        <ele>590.900000</ele>
        <time>2009-11-20T19:01:23Z</time>
      </trkpt>
      <trkpt lat="50.524179" lon="6.116378">
        <ele>592.300000</ele>
        <time>2009-11-20T19:01:38Z</time>
      </trkpt>
      <trkpt lat="50.524002" lon="6.116387">
        <ele>593.300000</ele>
        <time>2009-11-20T19:01:55Z</time>
      </trkpt>
      <trkpt lat="50.523848" lon="6.116365">
        <ele>594.700000</ele>
        <time>2009-11-20T19:02:10Z</time>
      </trkpt>
      <trkpt lat="50.523836" lon="6.116362">
        <ele>595.700000</ele>
        <time>2009-11-20T19:02:11Z</time>
      </trkpt>
      <trkpt lat="50.523744" lon="6.116356">
        <ele>596.200000</ele>
        <time>2009-11-20T19:02:20Z</time>
      </trkpt>
      <trkpt lat="50.523570" lon="6.116350">
        <ele>597.600000</ele>
        <time>2009-11-20T19:02:36Z</time>
      </trkpt>
      <trkpt lat="50.523378" lon="6.116320">
        <ele>597.600000</ele>
        <time>2009-11-20T19:02:54Z</time>
      </trkpt>
      <trkpt lat="50.523220" lon="6.116277">
        <ele>600.000000</ele>
        <time>2009-11-20T19:03:10Z</time>
      </trkpt>
      <trkpt lat="50.523039" lon="6.116246">
        <ele>601.400000</ele>
        <time>2009-11-20T19:03:27Z</time>
      </trkpt>
      <trkpt lat="50.522859" lon="6.116199">
        <ele>602.400000</ele>
        <time>2009-11-20T19:03:44Z</time>
      </trkpt>
      <trkpt lat="50.522685" lon="6.116218">
        <ele>603.400000</ele>
        <time>2009-11-20T19:04:01Z</time>
      </trkpt>
      <trkpt lat="50.522536" lon="6.116222">
        <ele>603.400000</ele>
        <time>2009-11-20T19:04:15Z</time>
      </trkpt>
      <trkpt lat="50.522347" lon="6.116232">
        <ele>604.300000</ele>
        <time>2009-11-20T19:04:33Z</time>
      </trkpt>
      <trkpt lat="50.522146" lon="6.116178">
        <ele>605.300000</ele>
        <time>2009-11-20T19:04:52Z</time>
      </trkpt>
      <trkpt lat="50.522080" lon="6.116169">
        <ele>605.800000</ele>
        <time>2009-11-20T19:04:58Z</time>
      </trkpt>
      <trkpt lat="50.522036" lon="6.116137">
        <ele>605.800000</ele>
        <time>2009-11-20T19:05:03Z</time>
      </trkpt>
      <trkpt lat="50.521807" lon="6.116102">
        <ele>606.700000</ele>
        <time>2009-11-20T19:05:25Z</time>
      </trkpt>
      <trkpt lat="50.521591" lon="6.116043">
        <ele>607.200000</ele>
        <time>2009-11-20T19:05:46Z</time>
      </trkpt>
      <trkpt lat="50.521400" lon="6.116069">
        <ele>608.200000</ele>
        <time>2009-11-20T19:06:04Z</time>
      </trkpt>
      <trkpt lat="50.521279" lon="6.116164">
        <ele>609.100000</ele>
        <time>2009-11-20T19:06:17Z</time>
      </trkpt>
      <trkpt lat="50.521229" lon="6.116297">
        <ele>609.600000</ele>
        <time>2009-11-20T19:06:26Z</time>
      </trkpt>
      <trkpt lat="50.521202" lon="6.116473">
        <ele>610.100000</ele>
        <time>2009-11-20T19:06:37Z</time>
      </trkpt>
      <trkpt lat="50.521136" lon="6.116710">
        <ele>610.600000</ele>
        <time>2009-11-20T19:06:52Z</time>
      </trkpt>
      <trkpt lat="50.521120" lon="6.116771">
        <ele>610.600000</ele>
        <time>2009-11-20T19:06:56Z</time>
      </trkpt>
      <trkpt lat="50.521102" lon="6.116879">
        <ele>611.100000</ele>
        <time>2009-11-20T19:07:03Z</time>
      </trkpt>
      <trkpt lat="50.521042" lon="6.117190">
        <ele>612.000000</ele>
        <time>2009-11-20T19:07:23Z</time>
      </trkpt>
      <trkpt lat="50.520973" lon="6.117452">
        <ele>613.500000</ele>
        <time>2009-11-20T19:07:40Z</time>
      </trkpt>
      <trkpt lat="50.520917" lon="6.117690">
        <ele>615.400000</ele>
        <time>2009-11-20T19:07:55Z</time>
      </trkpt>
      <trkpt lat="50.520831" lon="6.117967">
        <ele>615.900000</ele>
        <time>2009-11-20T19:08:14Z</time>
      </trkpt>
      <trkpt lat="50.520783" lon="6.118234">
        <ele>616.800000</ele>
        <time>2009-11-20T19:08:30Z</time>
      </trkpt>
      <trkpt lat="50.520807" lon="6.118230">
        <ele>616.300000</ele>
        <time>2009-11-20T19:08:33Z</time>
      </trkpt>
      <trkpt lat="50.520835" lon="6.118227">
        <ele>616.300000</ele>
        <time>2009-11-20T19:08:35Z</time>
      </trkpt>
      <trkpt lat="50.520812" lon="6.118407">
        <ele>618.300000</ele>
        <time>2009-11-20T19:08:46Z</time>
      </trkpt>
      <trkpt lat="50.520803" lon="6.118466">
        <ele>618.300000</ele>
        <time>2009-11-20T19:08:50Z</time>
      </trkpt>
      <trkpt lat="50.520788" lon="6.118564">
        <ele>618.700000</ele>
        <time>2009-11-20T19:08:56Z</time>
      </trkpt>
      <trkpt lat="50.520759" lon="6.118644">
        <ele>619.200000</ele>
        <time>2009-11-20T19:09:02Z</time>
      </trkpt>
      <trkpt lat="50.520738" lon="6.118715">
        <ele>619.700000</ele>
        <time>2009-11-20T19:09:06Z</time>
      </trkpt>
      <trkpt lat="50.520687" lon="6.118947">
        <ele>620.200000</ele>
        <time>2009-11-20T19:09:21Z</time>
      </trkpt>
      <trkpt lat="50.520645" lon="6.119096">
        <ele>620.700000</ele>
        <time>2009-11-20T19:09:31Z</time>
      </trkpt>
      <trkpt lat="50.520590" lon="6.119340">
        <ele>621.100000</ele>
        <time>2009-11-20T19:09:47Z</time>
      </trkpt>
      <trkpt lat="50.520561" lon="6.119520">
        <ele>621.100000</ele>
        <time>2009-11-20T19:09:58Z</time>
      </trkpt>
      <trkpt lat="50.520537" lon="6.119611">
        <ele>621.100000</ele>
        <time>2009-11-20T19:10:04Z</time>
      </trkpt>
      <trkpt lat="50.520481" lon="6.119803">
        <ele>621.600000</ele>
        <time>2009-11-20T19:10:17Z</time>
      </trkpt>
      <trkpt lat="50.520437" lon="6.120036">
        <ele>622.600000</ele>
        <time>2009-11-20T19:10:31Z</time>
      </trkpt>
      <trkpt lat="50.520411" lon="6.120144">
        <ele>623.100000</ele>
        <time>2009-11-20T19:10:38Z</time>
      </trkpt>
      <trkpt lat="50.520353" lon="6.120344">
        <ele>623.600000</ele>
        <time>2009-11-20T19:10:51Z</time>
      </trkpt>
      <trkpt lat="50.520327" lon="6.120563">
        <ele>624.500000</ele>
        <time>2009-11-20T19:11:05Z</time>
      </trkpt>
      <trkpt lat="50.520314" lon="6.120608">
        <ele>624.500000</ele>
        <time>2009-11-20T19:11:08Z</time>
      </trkpt>
      <trkpt lat="50.520288" lon="6.120643">
        <ele>624.500000</ele>
        <time>2009-11-20T19:11:11Z</time>
      </trkpt>
      <trkpt lat="50.520280" lon="6.120690">
        <ele>624.500000</ele>
        <time>2009-11-20T19:11:14Z</time>
      </trkpt>
      <trkpt lat="50.520265" lon="6.120771">
        <ele>624.500000</ele>
        <time>2009-11-20T19:11:19Z</time>
      </trkpt>
      <trkpt lat="50.520255" lon="6.120798">
        <ele>624.500000</ele>
        <time>2009-11-20T19:11:21Z</time>
      </trkpt>
      <trkpt lat="50.520224" lon="6.120931">
        <ele>624.500000</ele>
        <time>2009-11-20T19:11:30Z</time>
      </trkpt>
      <trkpt lat="50.520217" lon="6.120963">
        <ele>625.000000</ele>
        <time>2009-11-20T19:11:32Z</time>
      </trkpt>
      <trkpt lat="50.520161" lon="6.121211">
        <ele>625.500000</ele>
        <time>2009-11-20T19:11:47Z</time>
      </trkpt>
      <trkpt lat="50.520110" lon="6.121455">
        <ele>626.000000</ele>
        <time>2009-11-20T19:12:03Z</time>
      </trkpt>
      <trkpt lat="50.520079" lon="6.121566">
        <ele>626.400000</ele>
        <time>2009-11-20T19:12:10Z</time>
      </trkpt>
      <trkpt lat="50.520059" lon="6.121648">
        <ele>626.900000</ele>
        <time>2009-11-20T19:12:16Z</time>
      </trkpt>
      <trkpt lat="50.520013" lon="6.121864">
        <ele>627.400000</ele>
        <time>2009-11-20T19:12:29Z</time>
      </trkpt>
      <trkpt lat="50.520001" lon="6.121922">
        <ele>628.400000</ele>
        <time>2009-11-20T19:12:33Z</time>
      </trkpt>
      <trkpt lat="50.519982" lon="6.121990">
        <ele>627.900000</ele>
        <time>2009-11-20T19:12:37Z</time>
      </trkpt>
      <trkpt lat="50.519961" lon="6.122065">
        <ele>628.400000</ele>
        <time>2009-11-20T19:12:42Z</time>
      </trkpt>
      <trkpt lat="50.519921" lon="6.122157">
        <ele>628.400000</ele>
        <time>2009-11-20T19:12:49Z</time>
      </trkpt>
      <trkpt lat="50.519892" lon="6.122223">
        <ele>627.900000</ele>
        <time>2009-11-20T19:12:54Z</time>
      </trkpt>
      <trkpt lat="50.519891" lon="6.122307">
        <ele>628.400000</ele>
        <time>2009-11-20T19:12:59Z</time>
      </trkpt>
      <trkpt lat="50.519798" lon="6.122470">
        <ele>628.800000</ele>
        <time>2009-11-20T19:13:12Z</time>
      </trkpt>
      <trkpt lat="50.519757" lon="6.122711">
        <ele>629.300000</ele>
        <time>2009-11-20T19:13:27Z</time>
      </trkpt>
      <trkpt lat="50.519777" lon="6.122760">
        <ele>628.800000</ele>
        <time>2009-11-20T19:13:31Z</time>
      </trkpt>
      <trkpt lat="50.519744" lon="6.122827">
        <ele>629.300000</ele>
        <time>2009-11-20T19:13:36Z</time>
      </trkpt>
      <trkpt lat="50.519663" lon="6.123062">
        <ele>629.300000</ele>
        <time>2009-11-20T19:13:52Z</time>
      </trkpt>
      <trkpt lat="50.519614" lon="6.123213">
        <ele>629.800000</ele>
        <time>2009-11-20T19:14:02Z</time>
      </trkpt>
      <trkpt lat="50.519581" lon="6.123353">
        <ele>629.300000</ele>
        <time>2009-11-20T19:14:11Z</time>
      </trkpt>
      <trkpt lat="50.519562" lon="6.123412">
        <ele>630.300000</ele>
        <time>2009-11-20T19:14:15Z</time>
      </trkpt>
      <trkpt lat="50.519515" lon="6.123642">
        <ele>631.700000</ele>
        <time>2009-11-20T19:14:30Z</time>
      </trkpt>
      <trkpt lat="50.519443" lon="6.123847">
        <ele>632.200000</ele>
        <time>2009-11-20T19:14:44Z</time>
      </trkpt>
      <trkpt lat="50.519411" lon="6.123950">
        <ele>632.700000</ele>
        <time>2009-11-20T19:14:51Z</time>
      </trkpt>
      <trkpt lat="50.519433" lon="6.124004">
        <ele>632.700000</ele>
        <time>2009-11-20T19:14:55Z</time>
      </trkpt>
      <trkpt lat="50.519416" lon="6.124005">
        <ele>631.200000</ele>
        <time>2009-11-20T19:14:56Z</time>
      </trkpt>
      <trkpt lat="50.519369" lon="6.124089">
        <ele>633.200000</ele>
        <time>2009-11-20T19:15:03Z</time>
      </trkpt>
      <trkpt lat="50.519359" lon="6.124116">
        <ele>633.600000</ele>
        <time>2009-11-20T19:15:05Z</time>
      </trkpt>
      <trkpt lat="50.519340" lon="6.124174">
        <ele>633.200000</ele>
        <time>2009-11-20T19:15:09Z</time>
      </trkpt>
      <trkpt lat="50.519333" lon="6.124210">
        <ele>633.600000</ele>
        <time>2009-11-20T19:15:11Z</time>
      </trkpt>
      <trkpt lat="50.519318" lon="6.124281">
        <ele>633.600000</ele>
        <time>2009-11-20T19:15:16Z</time>
      </trkpt>
      <trkpt lat="50.519264" lon="6.124377">
        <ele>634.600000</ele>
        <time>2009-11-20T19:15:23Z</time>
      </trkpt>
      <trkpt lat="50.519201" lon="6.124428">
        <ele>635.100000</ele>
        <time>2009-11-20T19:15:30Z</time>
      </trkpt>
      <trkpt lat="50.519176" lon="6.124503">
        <ele>635.600000</ele>
        <time>2009-11-20T19:15:35Z</time>
      </trkpt>
      <trkpt lat="50.519147" lon="6.124585">
        <ele>636.100000</ele>
        <time>2009-11-20T19:15:41Z</time>
      </trkpt>
      <trkpt lat="50.519111" lon="6.124659">
        <ele>636.500000</ele>
        <time>2009-11-20T19:15:47Z</time>
      </trkpt>
      <trkpt lat="50.519089" lon="6.124687">
        <ele>636.500000</ele>
        <time>2009-11-20T19:15:49Z</time>
      </trkpt>
      <trkpt lat="50.519023" lon="6.124779">
        <ele>636.500000</ele>
        <time>2009-11-20T19:15:58Z</time>
      </trkpt>
      <trkpt lat="50.518903" lon="6.124931">
        <ele>638.900000</ele>
        <time>2009-11-20T19:16:12Z</time>
      </trkpt>
      <trkpt lat="50.518787" lon="6.125033">
        <ele>639.400000</ele>
        <time>2009-11-20T19:16:25Z</time>
      </trkpt>
      <trkpt lat="50.518725" lon="6.125137">
        <ele>638.900000</ele>
        <time>2009-11-20T19:16:33Z</time>
      </trkpt>
      <trkpt lat="50.518670" lon="6.125241">
        <ele>639.400000</ele>
        <time>2009-11-20T19:16:42Z</time>
      </trkpt>
      <trkpt lat="50.518546" lon="6.125443">
        <ele>639.900000</ele>
        <time>2009-11-20T19:16:58Z</time>
      </trkpt>
      <trkpt lat="50.518401" lon="6.125642">
        <ele>640.400000</ele>
        <time>2009-11-20T19:17:17Z</time>
      </trkpt>
      <trkpt lat="50.518254" lon="6.125851">
        <ele>640.400000</ele>
        <time>2009-11-20T19:17:36Z</time>
      </trkpt>
      <trkpt lat="50.518195" lon="6.125903">
        <ele>639.900000</ele>
        <time>2009-11-20T19:17:42Z</time>
      </trkpt>
      <trkpt lat="50.518007" lon="6.126126">
        <ele>640.400000</ele>
        <time>2009-11-20T19:18:04Z</time>
      </trkpt>
      <trkpt lat="50.517801" lon="6.126358">
        <ele>640.400000</ele>
        <time>2009-11-20T19:18:28Z</time>
      </trkpt>
      <trkpt lat="50.517590" lon="6.126461">
        <ele>639.400000</ele>
        <time>2009-11-20T19:18:49Z</time>
      </trkpt>
      <trkpt lat="50.517413" lon="6.126542">
        <ele>639.900000</ele>
        <time>2009-11-20T19:19:07Z</time>
      </trkpt>
      <trkpt lat="50.517188" lon="6.126634">
        <ele>638.900000</ele>
        <time>2009-11-20T19:19:29Z</time>
      </trkpt>
      <trkpt lat="50.516975" lon="6.126741">
        <ele>638.900000</ele>
        <time>2009-11-20T19:19:50Z</time>
      </trkpt>
      <trkpt lat="50.516825" lon="6.126780">
        <ele>637.500000</ele>
        <time>2009-11-20T19:20:04Z</time>
      </trkpt>
      <trkpt lat="50.516750" lon="6.126799">
        <ele>637.500000</ele>
        <time>2009-11-20T19:20:12Z</time>
      </trkpt>
      <trkpt lat="50.516556" lon="6.126893">
        <ele>636.500000</ele>
        <time>2009-11-20T19:20:31Z</time>
      </trkpt>
      <trkpt lat="50.516459" lon="6.126938">
        <ele>635.600000</ele>
        <time>2009-11-20T19:20:40Z</time>
      </trkpt>
      <trkpt lat="50.516419" lon="6.126957">
        <ele>636.100000</ele>
        <time>2009-11-20T19:20:44Z</time>
      </trkpt>
      <trkpt lat="50.516427" lon="6.126954">
        <ele>635.600000</ele>
        <time>2009-11-20T19:20:45Z</time>
      </trkpt>
      <trkpt lat="50.516492" lon="6.126941">
        <ele>637.500000</ele>
        <time>2009-11-20T19:20:51Z</time>
      </trkpt>
      <trkpt lat="50.516597" lon="6.126907">
        <ele>637.500000</ele>
        <time>2009-11-20T19:21:02Z</time>
      </trkpt>
      <trkpt lat="50.516685" lon="6.126855">
        <ele>637.000000</ele>
        <time>2009-11-20T19:21:10Z</time>
      </trkpt>
      <trkpt lat="50.516791" lon="6.126809">
        <ele>637.000000</ele>
        <time>2009-11-20T19:21:21Z</time>
      </trkpt>
      <trkpt lat="50.516814" lon="6.126773">
        <ele>637.000000</ele>
        <time>2009-11-20T19:21:24Z</time>
      </trkpt>
      <trkpt lat="50.516844" lon="6.126651">
        <ele>637.000000</ele>
        <time>2009-11-20T19:21:32Z</time>
      </trkpt>
      <trkpt lat="50.516847" lon="6.126618">
        <ele>637.000000</ele>
        <time>2009-11-20T19:21:34Z</time>
      </trkpt>
      <trkpt lat="50.516850" lon="6.126465">
        <ele>636.500000</ele>
        <time>2009-11-20T19:21:43Z</time>
      </trkpt>
      <trkpt lat="50.516849" lon="6.126465">
        <ele>636.500000</ele>
        <time>2009-11-20T19:21:43Z</time>
      </trkpt>
      <trkpt lat="50.516818" lon="6.126598">
        <ele>638.000000</ele>
        <time>2009-11-20T19:21:52Z</time>
      </trkpt>
      <trkpt lat="50.516816" lon="6.126622">
        <ele>636.500000</ele>
        <time>2009-11-20T19:21:53Z</time>
      </trkpt>
      <trkpt lat="50.516793" lon="6.126691">
        <ele>636.500000</ele>
        <time>2009-11-20T19:21:58Z</time>
      </trkpt>
      <trkpt lat="50.516729" lon="6.126800">
        <ele>636.500000</ele>
        <time>2009-11-20T19:22:07Z</time>
      </trkpt>
      <trkpt lat="50.516533" lon="6.126915">
        <ele>636.500000</ele>
        <time>2009-11-20T19:22:27Z</time>
      </trkpt>
      <trkpt lat="50.516327" lon="6.127004">
        <ele>635.600000</ele>
        <time>2009-11-20T19:22:47Z</time>
      </trkpt>
      <trkpt lat="50.516122" lon="6.127098">
        <ele>634.600000</ele>
        <time>2009-11-20T19:23:07Z</time>
      </trkpt>
      <trkpt lat="50.515924" lon="6.127192">
        <ele>634.600000</ele>
        <time>2009-11-20T19:23:27Z</time>
      </trkpt>
      <trkpt lat="50.515680" lon="6.127325">
        <ele>634.600000</ele>
        <time>2009-11-20T19:23:51Z</time>
      </trkpt>
      <trkpt lat="50.515469" lon="6.127396">
        <ele>634.100000</ele>
        <time>2009-11-20T19:24:12Z</time>
      </trkpt>
      <trkpt lat="50.515268" lon="6.127491">
        <ele>633.200000</ele>
        <time>2009-11-20T19:24:32Z</time>
      </trkpt>
      <trkpt lat="50.515160" lon="6.127537">
        <ele>633.600000</ele>
        <time>2009-11-20T19:24:42Z</time>
      </trkpt>
      <trkpt lat="50.514953" lon="6.127626">
        <ele>633.200000</ele>
        <time>2009-11-20T19:25:03Z</time>
      </trkpt>
      <trkpt lat="50.514761" lon="6.127728">
        <ele>633.200000</ele>
        <time>2009-11-20T19:25:22Z</time>
      </trkpt>
      <trkpt lat="50.514536" lon="6.127819">
        <ele>633.200000</ele>
        <time>2009-11-20T19:25:44Z</time>
      </trkpt>
      <trkpt lat="50.514342" lon="6.127908">
        <ele>632.200000</ele>
        <time>2009-11-20T19:26:03Z</time>
      </trkpt>
      <trkpt lat="50.514191" lon="6.127972">
        <ele>631.700000</ele>
        <time>2009-11-20T19:26:18Z</time>
      </trkpt>
      <trkpt lat="50.514003" lon="6.128046">
        <ele>631.200000</ele>
        <time>2009-11-20T19:26:36Z</time>
      </trkpt>
      <trkpt lat="50.513810" lon="6.128131">
        <ele>631.700000</ele>
        <time>2009-11-20T19:26:55Z</time>
      </trkpt>
      <trkpt lat="50.513606" lon="6.128227">
        <ele>631.200000</ele>
        <time>2009-11-20T19:27:15Z</time>
      </trkpt>
      <trkpt lat="50.513441" lon="6.128302">
        <ele>630.800000</ele>
        <time>2009-11-20T19:27:32Z</time>
      </trkpt>
      <trkpt lat="50.513310" lon="6.128359">
        <ele>630.800000</ele>
        <time>2009-11-20T19:27:45Z</time>
      </trkpt>
      <trkpt lat="50.513284" lon="6.128360">
        <ele>630.800000</ele>
        <time>2009-11-20T19:27:47Z</time>
      </trkpt>
      <trkpt lat="50.513268" lon="6.128362">
        <ele>630.800000</ele>
        <time>2009-11-20T19:27:49Z</time>
      </trkpt>
      <trkpt lat="50.513179" lon="6.128137">
        <ele>629.800000</ele>
        <time>2009-11-20T19:28:05Z</time>
      </trkpt>
      <trkpt lat="50.513171" lon="6.128112">
        <ele>629.800000</ele>
        <time>2009-11-20T19:28:06Z</time>
      </trkpt>
      <trkpt lat="50.513141" lon="6.128056">
        <ele>629.300000</ele>
        <time>2009-11-20T19:28:11Z</time>
      </trkpt>
      <trkpt lat="50.513063" lon="6.127842">
        <ele>628.400000</ele>
        <time>2009-11-20T19:28:26Z</time>
      </trkpt>
      <trkpt lat="50.513046" lon="6.127661">
        <ele>628.800000</ele>
        <time>2009-11-20T19:28:37Z</time>
      </trkpt>
      <trkpt lat="50.513023" lon="6.127369">
        <ele>628.400000</ele>
        <time>2009-11-20T19:28:54Z</time>
      </trkpt>
      <trkpt lat="50.512911" lon="6.126983">
        <ele>626.900000</ele>
        <time>2009-11-20T19:29:20Z</time>
      </trkpt>
      <trkpt lat="50.512730" lon="6.126849">
        <ele>626.900000</ele>
        <time>2009-11-20T19:29:39Z</time>
      </trkpt>
      <trkpt lat="50.512701" lon="6.126871">
        <ele>627.400000</ele>
        <time>2009-11-20T19:29:42Z</time>
      </trkpt>
      <trkpt lat="50.512595" lon="6.126970">
        <ele>627.400000</ele>
        <time>2009-11-20T19:29:54Z</time>
      </trkpt>
      <trkpt lat="50.512557" lon="6.127032">
        <ele>627.400000</ele>
        <time>2009-11-20T19:29:59Z</time>
      </trkpt>
      <trkpt lat="50.512413" lon="6.127248">
        <ele>627.900000</ele>
        <time>2009-11-20T19:30:18Z</time>
      </trkpt>
      <trkpt lat="50.512361" lon="6.127312">
        <ele>627.900000</ele>
        <time>2009-11-20T19:30:24Z</time>
      </trkpt>
      <trkpt lat="50.512245" lon="6.127519">
        <ele>627.400000</ele>
        <time>2009-11-20T19:30:41Z</time>
      </trkpt>
      <trkpt lat="50.512211" lon="6.127576">
        <ele>628.400000</ele>
        <time>2009-11-20T19:30:45Z</time>
      </trkpt>
      <trkpt lat="50.512107" lon="6.127791">
        <ele>627.900000</ele>
        <time>2009-11-20T19:31:02Z</time>
      </trkpt>
      <trkpt lat="50.512057" lon="6.127882">
        <ele>628.400000</ele>
        <time>2009-11-20T19:31:09Z</time>
      </trkpt>
      <trkpt lat="50.511950" lon="6.128052">
        <ele>628.800000</ele>
        <time>2009-11-20T19:31:23Z</time>
      </trkpt>
      <trkpt lat="50.511885" lon="6.128143">
        <ele>628.800000</ele>
        <time>2009-11-20T19:31:32Z</time>
      </trkpt>
      <trkpt lat="50.511797" lon="6.128427">
        <ele>628.800000</ele>
        <time>2009-11-20T19:31:51Z</time>
      </trkpt>
      <trkpt lat="50.511724" lon="6.128613">
        <ele>629.300000</ele>
        <time>2009-11-20T19:32:04Z</time>
      </trkpt>
      <trkpt lat="50.511662" lon="6.128765">
        <ele>629.300000</ele>
        <time>2009-11-20T19:32:15Z</time>
      </trkpt>
      <trkpt lat="50.511604" lon="6.128924">
        <ele>629.300000</ele>
        <time>2009-11-20T19:32:26Z</time>
      </trkpt>
      <trkpt lat="50.511517" lon="6.129072">
        <ele>628.800000</ele>
        <time>2009-11-20T19:32:38Z</time>
      </trkpt>
      <trkpt lat="50.511514" lon="6.129074">
        <ele>627.900000</ele>
        <time>2009-11-20T19:32:38Z</time>
      </trkpt>
      <trkpt lat="50.511459" lon="6.129071">
        <ele>629.800000</ele>
        <time>2009-11-20T19:32:43Z</time>
      </trkpt>
      <trkpt lat="50.511442" lon="6.129152">
        <ele>630.300000</ele>
        <time>2009-11-20T19:32:49Z</time>
      </trkpt>
      <trkpt lat="50.511442" lon="6.129208">
        <ele>630.300000</ele>
        <time>2009-11-20T19:32:52Z</time>
      </trkpt>
      <trkpt lat="50.511430" lon="6.129301">
        <ele>630.300000</ele>
        <time>2009-11-20T19:32:58Z</time>
      </trkpt>
      <trkpt lat="50.511493" lon="6.129447">
        <ele>628.400000</ele>
        <time>2009-11-20T19:33:08Z</time>
      </trkpt>
      <trkpt lat="50.511508" lon="6.129372">
        <ele>629.300000</ele>
        <time>2009-11-20T19:33:13Z</time>
      </trkpt>
      <trkpt lat="50.511566" lon="6.129347">
        <ele>629.800000</ele>
        <time>2009-11-20T19:33:19Z</time>
      </trkpt>
      <trkpt lat="50.511487" lon="6.129285">
        <ele>628.800000</ele>
        <time>2009-11-20T19:33:27Z</time>
      </trkpt>
      <trkpt lat="50.511532" lon="6.129285">
        <ele>630.300000</ele>
        <time>2009-11-20T19:33:31Z</time>
      </trkpt>
      <trkpt lat="50.511527" lon="6.129238">
        <ele>629.800000</ele>
        <time>2009-11-20T19:33:34Z</time>
      </trkpt>
      <trkpt lat="50.511505" lon="6.129137">
        <ele>629.300000</ele>
        <time>2009-11-20T19:33:41Z</time>
      </trkpt>
      <trkpt lat="50.511627" lon="6.128855">
        <ele>629.300000</ele>
        <time>2009-11-20T19:34:01Z</time>
      </trkpt>
      <trkpt lat="50.511753" lon="6.128599">
        <ele>628.800000</ele>
        <time>2009-11-20T19:34:21Z</time>
      </trkpt>
      <trkpt lat="50.511853" lon="6.128378">
        <ele>628.800000</ele>
        <time>2009-11-20T19:34:37Z</time>
      </trkpt>
      <trkpt lat="50.511967" lon="6.128173">
        <ele>629.800000</ele>
        <time>2009-11-20T19:34:54Z</time>
      </trkpt>
      <trkpt lat="50.512101" lon="6.127960">
        <ele>629.300000</ele>
        <time>2009-11-20T19:35:12Z</time>
      </trkpt>
      <trkpt lat="50.512193" lon="6.127772">
        <ele>628.800000</ele>
        <time>2009-11-20T19:35:26Z</time>
      </trkpt>
      <trkpt lat="50.512346" lon="6.127587">
        <ele>628.800000</ele>
        <time>2009-11-20T19:35:44Z</time>
      </trkpt>
      <trkpt lat="50.512385" lon="6.127517">
        <ele>628.400000</ele>
        <time>2009-11-20T19:35:50Z</time>
      </trkpt>
      <trkpt lat="50.512640" lon="6.127095">
        <ele>627.900000</ele>
        <time>2009-11-20T19:36:25Z</time>
      </trkpt>
      <trkpt lat="50.512671" lon="6.126825">
        <ele>627.400000</ele>
        <time>2009-11-20T19:36:41Z</time>
      </trkpt>
      <trkpt lat="50.512524" lon="6.126773">
        <ele>627.400000</ele>
        <time>2009-11-20T19:36:56Z</time>
      </trkpt>
      <trkpt lat="50.512424" lon="6.126788">
        <ele>627.400000</ele>
        <time>2009-11-20T19:37:05Z</time>
      </trkpt>
      <trkpt lat="50.512349" lon="6.126810">
        <ele>627.400000</ele>
        <time>2009-11-20T19:37:13Z</time>
      </trkpt>
      <trkpt lat="50.512314" lon="6.126825">
        <ele>627.400000</ele>
        <time>2009-11-20T19:37:16Z</time>
      </trkpt>
      <trkpt lat="50.512248" lon="6.126843">
        <ele>626.400000</ele>
        <time>2009-11-20T19:37:22Z</time>
      </trkpt>
      <trkpt lat="50.512095" lon="6.126933">
        <ele>626.400000</ele>
        <time>2009-11-20T19:37:38Z</time>
      </trkpt>
      <trkpt lat="50.511931" lon="6.127057">
        <ele>626.900000</ele>
        <time>2009-11-20T19:37:55Z</time>
      </trkpt>
      <trkpt lat="50.511906" lon="6.127085">
        <ele>626.400000</ele>
        <time>2009-11-20T19:37:58Z</time>
      </trkpt>
      <trkpt lat="50.511730" lon="6.127153">
        <ele>626.000000</ele>
        <time>2009-11-20T19:38:15Z</time>
      </trkpt>
      <trkpt lat="50.511681" lon="6.127194">
        <ele>626.000000</ele>
        <time>2009-11-20T19:38:20Z</time>
      </trkpt>
      <trkpt lat="50.511548" lon="6.127247">
        <ele>625.500000</ele>
        <time>2009-11-20T19:38:33Z</time>
      </trkpt>
      <trkpt lat="50.511530" lon="6.127250">
        <ele>625.000000</ele>
        <time>2009-11-20T19:38:35Z</time>
      </trkpt>
      <trkpt lat="50.511458" lon="6.127195">
        <ele>625.500000</ele>
        <time>2009-11-20T19:38:43Z</time>
      </trkpt>
      <trkpt lat="50.511449" lon="6.127156">
        <ele>624.500000</ele>
        <time>2009-11-20T19:38:45Z</time>
      </trkpt>
      <trkpt lat="50.511378" lon="6.127057">
        <ele>623.600000</ele>
        <time>2009-11-20T19:38:54Z</time>
      </trkpt>
      <trkpt lat="50.511305" lon="6.127007">
        <ele>623.600000</ele>
        <time>2009-11-20T19:39:02Z</time>
      </trkpt>
      <trkpt lat="50.511140" lon="6.126823">
        <ele>622.600000</ele>
        <time>2009-11-20T19:39:21Z</time>
      </trkpt>
      <trkpt lat="50.511121" lon="6.126782">
        <ele>622.600000</ele>
        <time>2009-11-20T19:39:24Z</time>
      </trkpt>
      <trkpt lat="50.511030" lon="6.126544">
        <ele>622.600000</ele>
        <time>2009-11-20T19:39:41Z</time>
      </trkpt>
      <trkpt lat="50.510936" lon="6.126470">
        <ele>622.100000</ele>
        <time>2009-11-20T19:39:51Z</time>
      </trkpt>
      <trkpt lat="50.510818" lon="6.126329">
        <ele>622.600000</ele>
        <time>2009-11-20T19:40:05Z</time>
      </trkpt>
      <trkpt lat="50.510648" lon="6.126137">
        <ele>618.700000</ele>
        <time>2009-11-20T19:40:25Z</time>
      </trkpt>
      <trkpt lat="50.510481" lon="6.125905">
        <ele>618.300000</ele>
        <time>2009-11-20T19:40:46Z</time>
      </trkpt>
      <trkpt lat="50.510398" lon="6.125737">
        <ele>618.300000</ele>
        <time>2009-11-20T19:40:59Z</time>
      </trkpt>
      <trkpt lat="50.510252" lon="6.125596">
        <ele>617.800000</ele>
        <time>2009-11-20T19:41:15Z</time>
      </trkpt>
      <trkpt lat="50.510131" lon="6.125450">
        <ele>616.800000</ele>
        <time>2009-11-20T19:41:29Z</time>
      </trkpt>
      <trkpt lat="50.510001" lon="6.125273">
        <ele>616.800000</ele>
        <time>2009-11-20T19:41:46Z</time>
      </trkpt>
      <trkpt lat="50.509865" lon="6.125090">
        <ele>614.400000</ele>
        <time>2009-11-20T19:42:03Z</time>
      </trkpt>
      <trkpt lat="50.509708" lon="6.124870">
        <ele>613.900000</ele>
        <time>2009-11-20T19:42:23Z</time>
      </trkpt>
      <trkpt lat="50.509577" lon="6.124670">
        <ele>613.000000</ele>
        <time>2009-11-20T19:42:40Z</time>
      </trkpt>
      <trkpt lat="50.509413" lon="6.124448">
        <ele>612.500000</ele>
        <time>2009-11-20T19:43:00Z</time>
      </trkpt>
      <trkpt lat="50.509247" lon="6.124226">
        <ele>611.100000</ele>
        <time>2009-11-20T19:43:21Z</time>
      </trkpt>
      <trkpt lat="50.509079" lon="6.123976">
        <ele>610.100000</ele>
        <time>2009-11-20T19:43:43Z</time>
      </trkpt>
      <trkpt lat="50.508928" lon="6.123781">
        <ele>609.600000</ele>
        <time>2009-11-20T19:44:02Z</time>
      </trkpt>
      <trkpt lat="50.508769" lon="6.123554">
        <ele>608.700000</ele>
        <time>2009-11-20T19:44:22Z</time>
      </trkpt>
      <trkpt lat="50.508624" lon="6.123345">
        <ele>607.200000</ele>
        <time>2009-11-20T19:44:41Z</time>
      </trkpt>
      <trkpt lat="50.508453" lon="6.123160">
        <ele>606.700000</ele>
        <time>2009-11-20T19:45:00Z</time>
      </trkpt>
      <trkpt lat="50.508308" lon="6.122946">
        <ele>606.200000</ele>
        <time>2009-11-20T19:45:19Z</time>
      </trkpt>
      <trkpt lat="50.508177" lon="6.122729">
        <ele>606.200000</ele>
        <time>2009-11-20T19:45:37Z</time>
      </trkpt>
      <trkpt lat="50.508030" lon="6.122568">
        <ele>604.800000</ele>
        <time>2009-11-20T19:45:54Z</time>
      </trkpt>
      <trkpt lat="50.507966" lon="6.122498">
        <ele>603.800000</ele>
        <time>2009-11-20T19:46:02Z</time>
      </trkpt>
      <trkpt lat="50.507854" lon="6.122317">
        <ele>603.400000</ele>
        <time>2009-11-20T19:46:17Z</time>
      </trkpt>
      <trkpt lat="50.507792" lon="6.122168">
        <ele>604.300000</ele>
        <time>2009-11-20T19:46:27Z</time>
      </trkpt>
      <trkpt lat="50.507748" lon="6.122103">
        <ele>604.300000</ele>
        <time>2009-11-20T19:46:33Z</time>
      </trkpt>
      <trkpt lat="50.507621" lon="6.121920">
        <ele>603.800000</ele>
        <time>2009-11-20T19:46:50Z</time>
      </trkpt>
      <trkpt lat="50.507567" lon="6.121849">
        <ele>604.300000</ele>
        <time>2009-11-20T19:46:56Z</time>
      </trkpt>
      <trkpt lat="50.507406" lon="6.121627">
        <ele>603.800000</ele>
        <time>2009-11-20T19:47:17Z</time>
      </trkpt>
      <trkpt lat="50.507289" lon="6.121467">
        <ele>604.300000</ele>
        <time>2009-11-20T19:47:31Z</time>
      </trkpt>
      <trkpt lat="50.507250" lon="6.121404">
        <ele>603.800000</ele>
        <time>2009-11-20T19:47:37Z</time>
      </trkpt>
      <trkpt lat="50.507179" lon="6.121302">
        <ele>604.300000</ele>
        <time>2009-11-20T19:47:46Z</time>
      </trkpt>
      <trkpt lat="50.507052" lon="6.121129">
        <ele>603.800000</ele>
        <time>2009-11-20T19:48:02Z</time>
      </trkpt>
      <trkpt lat="50.506988" lon="6.121032">
        <ele>604.300000</ele>
        <time>2009-11-20T19:48:10Z</time>
      </trkpt>
      <trkpt lat="50.506806" lon="6.120803">
        <ele>604.800000</ele>
        <time>2009-11-20T19:48:32Z</time>
      </trkpt>
      <trkpt lat="50.506800" lon="6.120782">
        <ele>604.800000</ele>
        <time>2009-11-20T19:48:34Z</time>
      </trkpt>
      <trkpt lat="50.506655" lon="6.120607">
        <ele>605.300000</ele>
        <time>2009-11-20T19:48:51Z</time>
      </trkpt>
      <trkpt lat="50.506627" lon="6.120539">
        <ele>605.800000</ele>
        <time>2009-11-20T19:48:56Z</time>
      </trkpt>
      <trkpt lat="50.506564" lon="6.120439">
        <ele>606.200000</ele>
        <time>2009-11-20T19:49:04Z</time>
      </trkpt>
      <trkpt lat="50.506523" lon="6.120373">
        <ele>606.200000</ele>
        <time>2009-11-20T19:49:10Z</time>
      </trkpt>
      <trkpt lat="50.506390" lon="6.120165">
        <ele>605.800000</ele>
        <time>2009-11-20T19:49:28Z</time>
      </trkpt>
      <trkpt lat="50.506234" lon="6.119971">
        <ele>606.200000</ele>
        <time>2009-11-20T19:49:46Z</time>
      </trkpt>
      <trkpt lat="50.506092" lon="6.119796">
        <ele>606.700000</ele>
        <time>2009-11-20T19:50:04Z</time>
      </trkpt>
      <trkpt lat="50.506056" lon="6.119731">
        <ele>606.200000</ele>
        <time>2009-11-20T19:50:09Z</time>
      </trkpt>
      <trkpt lat="50.505886" lon="6.119531">
        <ele>606.700000</ele>
        <time>2009-11-20T19:50:29Z</time>
      </trkpt>
      <trkpt lat="50.505868" lon="6.119515">
        <ele>606.700000</ele>
        <time>2009-11-20T19:50:31Z</time>
      </trkpt>
      <trkpt lat="50.505779" lon="6.119376">
        <ele>607.200000</ele>
        <time>2009-11-20T19:50:43Z</time>
      </trkpt>
      <trkpt lat="50.505718" lon="6.119260">
        <ele>607.200000</ele>
        <time>2009-11-20T19:50:52Z</time>
      </trkpt>
      <trkpt lat="50.505681" lon="6.119202">
        <ele>608.200000</ele>
        <time>2009-11-20T19:50:57Z</time>
      </trkpt>
      <trkpt lat="50.505632" lon="6.119132">
        <ele>607.700000</ele>
        <time>2009-11-20T19:51:03Z</time>
      </trkpt>
      <trkpt lat="50.505615" lon="6.119107">
        <ele>608.200000</ele>
        <time>2009-11-20T19:51:05Z</time>
      </trkpt>
      <trkpt lat="50.505516" lon="6.118971">
        <ele>608.200000</ele>
        <time>2009-11-20T19:51:18Z</time>
      </trkpt>
      <trkpt lat="50.505470" lon="6.118896">
        <ele>608.200000</ele>
        <time>2009-11-20T19:51:24Z</time>
      </trkpt>
      <trkpt lat="50.505424" lon="6.118818">
        <ele>608.200000</ele>
        <time>2009-11-20T19:51:30Z</time>
      </trkpt>
      <trkpt lat="50.505241" lon="6.118597">
        <ele>608.200000</ele>
        <time>2009-11-20T19:51:52Z</time>
      </trkpt>
      <trkpt lat="50.505105" lon="6.118377">
        <ele>609.100000</ele>
        <time>2009-11-20T19:52:11Z</time>
      </trkpt>
      <trkpt lat="50.504925" lon="6.118184">
        <ele>609.100000</ele>
        <time>2009-11-20T19:52:31Z</time>
      </trkpt>
      <trkpt lat="50.504792" lon="6.118001">
        <ele>610.100000</ele>
        <time>2009-11-20T19:52:48Z</time>
      </trkpt>
      <trkpt lat="50.504770" lon="6.117970">
        <ele>610.100000</ele>
        <time>2009-11-20T19:52:51Z</time>
      </trkpt>
      <trkpt lat="50.504717" lon="6.117894">
        <ele>610.600000</ele>
        <time>2009-11-20T19:52:58Z</time>
      </trkpt>
      <trkpt lat="50.504615" lon="6.117734">
        <ele>611.500000</ele>
        <time>2009-11-20T19:53:12Z</time>
      </trkpt>
      <trkpt lat="50.504550" lon="6.117663">
        <ele>612.500000</ele>
        <time>2009-11-20T19:53:19Z</time>
      </trkpt>
      <trkpt lat="50.504498" lon="6.117632">
        <ele>612.000000</ele>
        <time>2009-11-20T19:53:24Z</time>
      </trkpt>
      <trkpt lat="50.504497" lon="6.117540">
        <ele>613.000000</ele>
        <time>2009-11-20T19:53:30Z</time>
      </trkpt>
      <trkpt lat="50.504421" lon="6.117427">
        <ele>613.000000</ele>
        <time>2009-11-20T19:53:40Z</time>
      </trkpt>
      <trkpt lat="50.504330" lon="6.117279">
        <ele>613.900000</ele>
        <time>2009-11-20T19:53:52Z</time>
      </trkpt>
      <trkpt lat="50.504295" lon="6.117230">
        <ele>614.400000</ele>
        <time>2009-11-20T19:53:57Z</time>
      </trkpt>
      <trkpt lat="50.504152" lon="6.117039">
        <ele>614.900000</ele>
        <time>2009-11-20T19:54:14Z</time>
      </trkpt>
      <trkpt lat="50.504034" lon="6.116840">
        <ele>615.400000</ele>
        <time>2009-11-20T19:54:31Z</time>
      </trkpt>
      <trkpt lat="50.503863" lon="6.116643">
        <ele>616.300000</ele>
        <time>2009-11-20T19:54:51Z</time>
      </trkpt>
      <trkpt lat="50.503817" lon="6.116585">
        <ele>616.800000</ele>
        <time>2009-11-20T19:54:57Z</time>
      </trkpt>
      <trkpt lat="50.503692" lon="6.116422">
        <ele>616.800000</ele>
        <time>2009-11-20T19:55:12Z</time>
      </trkpt>
      <trkpt lat="50.503559" lon="6.116250">
        <ele>617.800000</ele>
        <time>2009-11-20T19:55:28Z</time>
      </trkpt>
      <trkpt lat="50.503408" lon="6.116048">
        <ele>618.300000</ele>
        <time>2009-11-20T19:55:47Z</time>
      </trkpt>
      <trkpt lat="50.503384" lon="6.116019">
        <ele>618.300000</ele>
        <time>2009-11-20T19:55:50Z</time>
      </trkpt>
      <trkpt lat="50.503365" lon="6.115998">
        <ele>617.300000</ele>
        <time>2009-11-20T19:55:52Z</time>
      </trkpt>
      <trkpt lat="50.503217" lon="6.115879">
        <ele>618.300000</ele>
        <time>2009-11-20T19:56:08Z</time>
      </trkpt>
      <trkpt lat="50.503097" lon="6.115666">
        <ele>619.200000</ele>
        <time>2009-11-20T19:56:25Z</time>
      </trkpt>
      <trkpt lat="50.502964" lon="6.115485">
        <ele>620.700000</ele>
        <time>2009-11-20T19:56:42Z</time>
      </trkpt>
      <trkpt lat="50.502838" lon="6.115274">
        <ele>621.100000</ele>
        <time>2009-11-20T19:56:59Z</time>
      </trkpt>
      <trkpt lat="50.502734" lon="6.115117">
        <ele>622.100000</ele>
        <time>2009-11-20T19:57:13Z</time>
      </trkpt>
      <trkpt lat="50.502602" lon="6.114924">
        <ele>622.600000</ele>
        <time>2009-11-20T19:57:30Z</time>
      </trkpt>
      <trkpt lat="50.502566" lon="6.114869">
        <ele>621.600000</ele>
        <time>2009-11-20T19:57:35Z</time>
      </trkpt>
      <trkpt lat="50.502525" lon="6.114831">
        <ele>622.600000</ele>
        <time>2009-11-20T19:57:39Z</time>
      </trkpt>
      <trkpt lat="50.502493" lon="6.114776">
        <ele>623.100000</ele>
        <time>2009-11-20T19:57:44Z</time>
      </trkpt>
      <trkpt lat="50.502365" lon="6.114569">
        <ele>623.600000</ele>
        <time>2009-11-20T19:58:01Z</time>
      </trkpt>
      <trkpt lat="50.502290" lon="6.114486">
        <ele>624.000000</ele>
        <time>2009-11-20T19:58:10Z</time>
      </trkpt>
      <trkpt lat="50.502270" lon="6.114487">
        <ele>623.600000</ele>
        <time>2009-11-20T19:58:12Z</time>
      </trkpt>
      <trkpt lat="50.502229" lon="6.114387">
        <ele>624.000000</ele>
        <time>2009-11-20T19:58:19Z</time>
      </trkpt>
      <trkpt lat="50.502133" lon="6.114282">
        <ele>624.000000</ele>
        <time>2009-11-20T19:58:30Z</time>
      </trkpt>
      <trkpt lat="50.501975" lon="6.114098">
        <ele>624.500000</ele>
        <time>2009-11-20T19:58:49Z</time>
      </trkpt>
      <trkpt lat="50.501901" lon="6.113988">
        <ele>624.500000</ele>
        <time>2009-11-20T19:58:58Z</time>
      </trkpt>
      <trkpt lat="50.501766" lon="6.113778">
        <ele>624.500000</ele>
        <time>2009-11-20T19:59:16Z</time>
      </trkpt>
      <trkpt lat="50.501598" lon="6.113587">
        <ele>625.000000</ele>
        <time>2009-11-20T19:59:36Z</time>
      </trkpt>
      <trkpt lat="50.501481" lon="6.113407">
        <ele>625.000000</ele>
        <time>2009-11-20T19:59:51Z</time>
      </trkpt>
      <trkpt lat="50.501432" lon="6.113343">
        <ele>625.000000</ele>
        <time>2009-11-20T19:59:58Z</time>
      </trkpt>
      <trkpt lat="50.501363" lon="6.113234">
        <ele>625.000000</ele>
        <time>2009-11-20T20:00:07Z</time>
      </trkpt>
      <trkpt lat="50.501301" lon="6.113151">
        <ele>625.000000</ele>
        <time>2009-11-20T20:00:15Z</time>
      </trkpt>
      <trkpt lat="50.501154" lon="6.112942">
        <ele>625.000000</ele>
        <time>2009-11-20T20:00:33Z</time>
      </trkpt>
      <trkpt lat="50.501022" lon="6.112770">
        <ele>625.000000</ele>
        <time>2009-11-20T20:00:50Z</time>
      </trkpt>
      <trkpt lat="50.500962" lon="6.112690">
        <ele>625.500000</ele>
        <time>2009-11-20T20:00:57Z</time>
      </trkpt>
      <trkpt lat="50.500951" lon="6.112641">
        <ele>625.500000</ele>
        <time>2009-11-20T20:01:00Z</time>
      </trkpt>
      <trkpt lat="50.500924" lon="6.112628">
        <ele>625.500000</ele>
        <time>2009-11-20T20:01:03Z</time>
      </trkpt>
      <trkpt lat="50.500782" lon="6.112465">
        <ele>625.500000</ele>
        <time>2009-11-20T20:01:20Z</time>
      </trkpt>
      <trkpt lat="50.500661" lon="6.112291">
        <ele>626.000000</ele>
        <time>2009-11-20T20:01:35Z</time>
      </trkpt>
      <trkpt lat="50.500614" lon="6.112196">
        <ele>626.000000</ele>
        <time>2009-11-20T20:01:42Z</time>
      </trkpt>
      <trkpt lat="50.500550" lon="6.112127">
        <ele>625.500000</ele>
        <time>2009-11-20T20:01:50Z</time>
      </trkpt>
      <trkpt lat="50.500428" lon="6.111919">
        <ele>626.000000</ele>
        <time>2009-11-20T20:02:07Z</time>
      </trkpt>
      <trkpt lat="50.500306" lon="6.111723">
        <ele>626.000000</ele>
        <time>2009-11-20T20:02:23Z</time>
      </trkpt>
      <trkpt lat="50.500165" lon="6.111521">
        <ele>626.000000</ele>
        <time>2009-11-20T20:02:41Z</time>
      </trkpt>
      <trkpt lat="50.500041" lon="6.111353">
        <ele>626.000000</ele>
        <time>2009-11-20T20:02:57Z</time>
      </trkpt>
      <trkpt lat="50.499959" lon="6.111241">
        <ele>626.000000</ele>
        <time>2009-11-20T20:03:07Z</time>
      </trkpt>
      <trkpt lat="50.499910" lon="6.111168">
        <ele>626.900000</ele>
        <time>2009-11-20T20:03:14Z</time>
      </trkpt>
      <trkpt lat="50.499772" lon="6.110994">
        <ele>626.900000</ele>
        <time>2009-11-20T20:03:30Z</time>
      </trkpt>
      <trkpt lat="50.499659" lon="6.110810">
        <ele>626.900000</ele>
        <time>2009-11-20T20:03:46Z</time>
      </trkpt>
      <trkpt lat="50.499540" lon="6.110600">
        <ele>627.900000</ele>
        <time>2009-11-20T20:04:03Z</time>
      </trkpt>
      <trkpt lat="50.499383" lon="6.110470">
        <ele>627.400000</ele>
        <time>2009-11-20T20:04:20Z</time>
      </trkpt>
      <trkpt lat="50.499274" lon="6.110319">
        <ele>629.300000</ele>
        <time>2009-11-20T20:04:33Z</time>
      </trkpt>
      <trkpt lat="50.499236" lon="6.110250">
        <ele>629.300000</ele>
        <time>2009-11-20T20:04:39Z</time>
      </trkpt>
      <trkpt lat="50.499072" lon="6.110044">
        <ele>628.800000</ele>
        <time>2009-11-20T20:04:59Z</time>
      </trkpt>
      <trkpt lat="50.498927" lon="6.109883">
        <ele>629.800000</ele>
        <time>2009-11-20T20:05:16Z</time>
      </trkpt>
      <trkpt lat="50.498768" lon="6.109681">
        <ele>629.800000</ele>
        <time>2009-11-20T20:05:35Z</time>
      </trkpt>
      <trkpt lat="50.498599" lon="6.109435">
        <ele>630.300000</ele>
        <time>2009-11-20T20:05:57Z</time>
      </trkpt>
      <trkpt lat="50.498451" lon="6.109204">
        <ele>631.200000</ele>
        <time>2009-11-20T20:06:17Z</time>
      </trkpt>
      <trkpt lat="50.498326" lon="6.109042">
        <ele>631.700000</ele>
        <time>2009-11-20T20:06:32Z</time>
      </trkpt>
      <trkpt lat="50.498183" lon="6.108858">
        <ele>631.700000</ele>
        <time>2009-11-20T20:06:50Z</time>
      </trkpt>
      <trkpt lat="50.498058" lon="6.108690">
        <ele>632.700000</ele>
        <time>2009-11-20T20:07:05Z</time>
      </trkpt>
      <trkpt lat="50.497922" lon="6.108499">
        <ele>632.700000</ele>
        <time>2009-11-20T20:07:22Z</time>
      </trkpt>
      <trkpt lat="50.497771" lon="6.108273">
        <ele>634.100000</ele>
        <time>2009-11-20T20:07:42Z</time>
      </trkpt>
      <trkpt lat="50.497632" lon="6.108061">
        <ele>635.600000</ele>
        <time>2009-11-20T20:08:01Z</time>
      </trkpt>
      <trkpt lat="50.497445" lon="6.107849">
        <ele>635.100000</ele>
        <time>2009-11-20T20:08:22Z</time>
      </trkpt>
      <trkpt lat="50.497323" lon="6.107683">
        <ele>635.100000</ele>
        <time>2009-11-20T20:08:38Z</time>
      </trkpt>
      <trkpt lat="50.497313" lon="6.107674">
        <ele>635.600000</ele>
        <time>2009-11-20T20:08:39Z</time>
      </trkpt>
      <trkpt lat="50.497159" lon="6.107475">
        <ele>636.100000</ele>
        <time>2009-11-20T20:08:58Z</time>
      </trkpt>
      <trkpt lat="50.497048" lon="6.107238">
        <ele>636.500000</ele>
        <time>2009-11-20T20:09:15Z</time>
      </trkpt>
      <trkpt lat="50.496950" lon="6.107038">
        <ele>639.400000</ele>
        <time>2009-11-20T20:09:31Z</time>
      </trkpt>
      <trkpt lat="50.496820" lon="6.106805">
        <ele>640.400000</ele>
        <time>2009-11-20T20:09:49Z</time>
      </trkpt>
      <trkpt lat="50.496715" lon="6.106596">
        <ele>640.900000</ele>
        <time>2009-11-20T20:10:05Z</time>
      </trkpt>
      <trkpt lat="50.496676" lon="6.106434">
        <ele>641.800000</ele>
        <time>2009-11-20T20:10:16Z</time>
      </trkpt>
      <trkpt lat="50.496549" lon="6.106283">
        <ele>644.700000</ele>
        <time>2009-11-20T20:10:31Z</time>
      </trkpt>
      <trkpt lat="50.496390" lon="6.106034">
        <ele>646.100000</ele>
        <time>2009-11-20T20:10:52Z</time>
      </trkpt>
      <trkpt lat="50.496244" lon="6.105780">
        <ele>648.100000</ele>
        <time>2009-11-20T20:11:13Z</time>
      </trkpt>
      <trkpt lat="50.496099" lon="6.105540">
        <ele>648.500000</ele>
        <time>2009-11-20T20:11:33Z</time>
      </trkpt>
      <trkpt lat="50.495927" lon="6.105280">
        <ele>649.500000</ele>
        <time>2009-11-20T20:11:56Z</time>
      </trkpt>
      <trkpt lat="50.495775" lon="6.105054">
        <ele>651.000000</ele>
        <time>2009-11-20T20:12:15Z</time>
      </trkpt>
      <trkpt lat="50.495740" lon="6.105002">
        <ele>651.000000</ele>
        <time>2009-11-20T20:12:20Z</time>
      </trkpt>
      <trkpt lat="50.495623" lon="6.104826">
        <ele>652.400000</ele>
        <time>2009-11-20T20:12:35Z</time>
      </trkpt>
      <trkpt lat="50.495551" lon="6.104638">
        <ele>653.800000</ele>
        <time>2009-11-20T20:12:49Z</time>
      </trkpt>
      <trkpt lat="50.495428" lon="6.104427">
        <ele>655.800000</ele>
        <time>2009-11-20T20:13:06Z</time>
      </trkpt>
      <trkpt lat="50.495376" lon="6.104265">
        <ele>655.800000</ele>
        <time>2009-11-20T20:13:17Z</time>
      </trkpt>
      <trkpt lat="50.495405" lon="6.104225">
        <ele>657.700000</ele>
        <time>2009-11-20T20:13:20Z</time>
      </trkpt>
      <trkpt lat="50.495485" lon="6.104100">
        <ele>657.200000</ele>
        <time>2009-11-20T20:13:31Z</time>
      </trkpt>
      <trkpt lat="50.495538" lon="6.104051">
        <ele>657.700000</ele>
        <time>2009-11-20T20:13:37Z</time>
      </trkpt>
      <trkpt lat="50.495703" lon="6.103855">
        <ele>656.700000</ele>
        <time>2009-11-20T20:13:57Z</time>
      </trkpt>
      <trkpt lat="50.495845" lon="6.103686">
        <ele>659.600000</ele>
        <time>2009-11-20T20:14:13Z</time>
      </trkpt>
      <trkpt lat="50.495979" lon="6.103511">
        <ele>657.700000</ele>
        <time>2009-11-20T20:14:30Z</time>
      </trkpt>
      <trkpt lat="50.496040" lon="6.103455">
        <ele>657.700000</ele>
        <time>2009-11-20T20:14:37Z</time>
      </trkpt>
      <trkpt lat="50.496054" lon="6.103410">
        <ele>658.200000</ele>
        <time>2009-11-20T20:14:40Z</time>
      </trkpt>
      <trkpt lat="50.496194" lon="6.103234">
        <ele>658.600000</ele>
        <time>2009-11-20T20:14:57Z</time>
      </trkpt>
      <trkpt lat="50.496355" lon="6.103066">
        <ele>659.600000</ele>
        <time>2009-11-20T20:15:15Z</time>
      </trkpt>
      <trkpt lat="50.496508" lon="6.102903">
        <ele>660.600000</ele>
        <time>2009-11-20T20:15:33Z</time>
      </trkpt>
      <trkpt lat="50.496634" lon="6.102794">
        <ele>660.600000</ele>
        <time>2009-11-20T20:15:46Z</time>
      </trkpt>
      <trkpt lat="50.496773" lon="6.102579">
        <ele>661.500000</ele>
        <time>2009-11-20T20:16:05Z</time>
      </trkpt>
      <trkpt lat="50.496928" lon="6.102360">
        <ele>661.500000</ele>
        <time>2009-11-20T20:16:24Z</time>
      </trkpt>
      <trkpt lat="50.497066" lon="6.102162">
        <ele>661.500000</ele>
        <time>2009-11-20T20:16:42Z</time>
      </trkpt>
      <trkpt lat="50.497198" lon="6.102008">
        <ele>661.500000</ele>
        <time>2009-11-20T20:16:58Z</time>
      </trkpt>
      <trkpt lat="50.497363" lon="6.101836">
        <ele>662.000000</ele>
        <time>2009-11-20T20:17:17Z</time>
      </trkpt>
      <trkpt lat="50.497535" lon="6.101690">
        <ele>662.500000</ele>
        <time>2009-11-20T20:17:35Z</time>
      </trkpt>
      <trkpt lat="50.497604" lon="6.101626">
        <ele>663.000000</ele>
        <time>2009-11-20T20:17:43Z</time>
      </trkpt>
      <trkpt lat="50.497687" lon="6.101577">
        <ele>663.000000</ele>
        <time>2009-11-20T20:17:51Z</time>
      </trkpt>
      <trkpt lat="50.497844" lon="6.101403">
        <ele>663.900000</ele>
        <time>2009-11-20T20:18:09Z</time>
      </trkpt>
      <trkpt lat="50.498032" lon="6.101275">
        <ele>664.900000</ele>
        <time>2009-11-20T20:18:29Z</time>
      </trkpt>
      <trkpt lat="50.498235" lon="6.101120">
        <ele>665.900000</ele>
        <time>2009-11-20T20:18:50Z</time>
      </trkpt>
      <trkpt lat="50.498407" lon="6.100997">
        <ele>666.800000</ele>
        <time>2009-11-20T20:19:08Z</time>
      </trkpt>
      <trkpt lat="50.498464" lon="6.100954">
        <ele>666.300000</ele>
        <time>2009-11-20T20:19:14Z</time>
      </trkpt>
      <trkpt lat="50.498622" lon="6.100785">
        <ele>667.300000</ele>
        <time>2009-11-20T20:19:32Z</time>
      </trkpt>
      <trkpt lat="50.498827" lon="6.100587">
        <ele>668.300000</ele>
        <time>2009-11-20T20:19:55Z</time>
      </trkpt>
      <trkpt lat="50.499001" lon="6.100465">
        <ele>669.200000</ele>
        <time>2009-11-20T20:20:13Z</time>
      </trkpt>
      <trkpt lat="50.499169" lon="6.100307">
        <ele>669.700000</ele>
        <time>2009-11-20T20:20:32Z</time>
      </trkpt>
      <trkpt lat="50.499351" lon="6.100158">
        <ele>670.700000</ele>
        <time>2009-11-20T20:20:51Z</time>
      </trkpt>
      <trkpt lat="50.499545" lon="6.100023">
        <ele>672.100000</ele>
        <time>2009-11-20T20:21:11Z</time>
      </trkpt>
      <trkpt lat="50.499669" lon="6.099970">
        <ele>672.100000</ele>
        <time>2009-11-20T20:21:23Z</time>
      </trkpt>
      <trkpt lat="50.499721" lon="6.099945">
        <ele>672.600000</ele>
        <time>2009-11-20T20:21:29Z</time>
      </trkpt>
      <trkpt lat="50.499900" lon="6.099838">
        <ele>673.500000</ele>
        <time>2009-11-20T20:21:47Z</time>
      </trkpt>
      <trkpt lat="50.500039" lon="6.099759">
        <ele>675.000000</ele>
        <time>2009-11-20T20:22:01Z</time>
      </trkpt>
      <trkpt lat="50.500182" lon="6.099642">
        <ele>675.900000</ele>
        <time>2009-11-20T20:22:16Z</time>
      </trkpt>
      <trkpt lat="50.500331" lon="6.099446">
        <ele>677.400000</ele>
        <time>2009-11-20T20:22:34Z</time>
      </trkpt>
      <trkpt lat="50.500489" lon="6.099357">
        <ele>676.900000</ele>
        <time>2009-11-20T20:22:50Z</time>
      </trkpt>
      <trkpt lat="50.500624" lon="6.099179">
        <ele>677.900000</ele>
        <time>2009-11-20T20:23:07Z</time>
      </trkpt>
      <trkpt lat="50.500753" lon="6.099050">
        <ele>678.300000</ele>
        <time>2009-11-20T20:23:22Z</time>
      </trkpt>
      <trkpt lat="50.500896" lon="6.098921">
        <ele>679.800000</ele>
        <time>2009-11-20T20:23:37Z</time>
      </trkpt>
      <trkpt lat="50.501013" lon="6.098667">
        <ele>681.200000</ele>
        <time>2009-11-20T20:23:56Z</time>
      </trkpt>
      <trkpt lat="50.501072" lon="6.098582">
        <ele>681.200000</ele>
        <time>2009-11-20T20:24:04Z</time>
      </trkpt>
      <trkpt lat="50.501132" lon="6.098536">
        <ele>682.200000</ele>
        <time>2009-11-20T20:24:10Z</time>
      </trkpt>
      <trkpt lat="50.501264" lon="6.098405">
        <ele>683.200000</ele>
        <time>2009-11-20T20:24:25Z</time>
      </trkpt>
      <trkpt lat="50.501418" lon="6.098272">
        <ele>683.200000</ele>
        <time>2009-11-20T20:24:41Z</time>
      </trkpt>
      <trkpt lat="50.501500" lon="6.098094">
        <ele>683.600000</ele>
        <time>2009-11-20T20:24:55Z</time>
      </trkpt>
      <trkpt lat="50.501606" lon="6.097976">
        <ele>684.100000</ele>
        <time>2009-11-20T20:25:07Z</time>
      </trkpt>
      <trkpt lat="50.501629" lon="6.097947">
        <ele>684.100000</ele>
        <time>2009-11-20T20:25:10Z</time>
      </trkpt>
      <trkpt lat="50.501809" lon="6.097843">
        <ele>684.600000</ele>
        <time>2009-11-20T20:25:28Z</time>
      </trkpt>
      <trkpt lat="50.501998" lon="6.097518">
        <ele>685.100000</ele>
        <time>2009-11-20T20:25:55Z</time>
      </trkpt>
      <trkpt lat="50.502146" lon="6.097354">
        <ele>685.100000</ele>
        <time>2009-11-20T20:26:12Z</time>
      </trkpt>
      <trkpt lat="50.502307" lon="6.097115">
        <ele>685.600000</ele>
        <time>2009-11-20T20:26:33Z</time>
      </trkpt>
      <trkpt lat="50.502340" lon="6.097038">
        <ele>685.600000</ele>
        <time>2009-11-20T20:26:38Z</time>
      </trkpt>
      <trkpt lat="50.502421" lon="6.096690">
        <ele>685.600000</ele>
        <time>2009-11-20T20:27:01Z</time>
      </trkpt>
      <trkpt lat="50.502499" lon="6.096472">
        <ele>685.600000</ele>
        <time>2009-11-20T20:27:16Z</time>
      </trkpt>
      <trkpt lat="50.502595" lon="6.096221">
        <ele>686.000000</ele>
        <time>2009-11-20T20:27:33Z</time>
      </trkpt>
      <trkpt lat="50.502709" lon="6.095960">
        <ele>686.000000</ele>
        <time>2009-11-20T20:27:53Z</time>
      </trkpt>
      <trkpt lat="50.502817" lon="6.095673">
        <ele>686.000000</ele>
        <time>2009-11-20T20:28:13Z</time>
      </trkpt>
      <trkpt lat="50.502918" lon="6.095367">
        <ele>687.000000</ele>
        <time>2009-11-20T20:28:33Z</time>
      </trkpt>
      <trkpt lat="50.503034" lon="6.095116">
        <ele>688.400000</ele>
        <time>2009-11-20T20:28:52Z</time>
      </trkpt>
      <trkpt lat="50.503140" lon="6.094854">
        <ele>688.400000</ele>
        <time>2009-11-20T20:29:11Z</time>
      </trkpt>
      <trkpt lat="50.503145" lon="6.094833">
        <ele>688.400000</ele>
        <time>2009-11-20T20:29:12Z</time>
      </trkpt>
      <trkpt lat="50.503245" lon="6.094604">
        <ele>688.000000</ele>
        <time>2009-11-20T20:29:29Z</time>
      </trkpt>
      <trkpt lat="50.503379" lon="6.094336">
        <ele>688.400000</ele>
        <time>2009-11-20T20:29:50Z</time>
      </trkpt>
      <trkpt lat="50.503372" lon="6.094234">
        <ele>688.900000</ele>
        <time>2009-11-20T20:29:56Z</time>
      </trkpt>
      <trkpt lat="50.503328" lon="6.094145">
        <ele>689.400000</ele>
        <time>2009-11-20T20:30:03Z</time>
      </trkpt>
      <trkpt lat="50.503312" lon="6.094126">
        <ele>689.900000</ele>
        <time>2009-11-20T20:30:04Z</time>
      </trkpt>
      <trkpt lat="50.503244" lon="6.093949">
        <ele>689.900000</ele>
        <time>2009-11-20T20:30:17Z</time>
      </trkpt>
      <trkpt lat="50.503154" lon="6.093706">
        <ele>690.800000</ele>
        <time>2009-11-20T20:30:34Z</time>
      </trkpt>
      <trkpt lat="50.503108" lon="6.093515">
        <ele>690.800000</ele>
        <time>2009-11-20T20:30:46Z</time>
      </trkpt>
      <trkpt lat="50.503056" lon="6.093296">
        <ele>691.300000</ele>
        <time>2009-11-20T20:31:00Z</time>
      </trkpt>
      <trkpt lat="50.503036" lon="6.093255">
        <ele>691.800000</ele>
        <time>2009-11-20T20:31:03Z</time>
      </trkpt>
      <trkpt lat="50.502852" lon="6.093024">
        <ele>691.300000</ele>
        <time>2009-11-20T20:31:26Z</time>
      </trkpt>
      <trkpt lat="50.502736" lon="6.092907">
        <ele>691.800000</ele>
        <time>2009-11-20T20:31:39Z</time>
      </trkpt>
      <trkpt lat="50.502688" lon="6.092790">
        <ele>691.800000</ele>
        <time>2009-11-20T20:31:47Z</time>
      </trkpt>
      <trkpt lat="50.502407" lon="6.092576">
        <ele>692.300000</ele>
        <time>2009-11-20T20:32:17Z</time>
      </trkpt>
      <trkpt lat="50.502348" lon="6.092549">
        <ele>691.800000</ele>
        <time>2009-11-20T20:32:23Z</time>
      </trkpt>
      <trkpt lat="50.502264" lon="6.092629">
        <ele>692.800000</ele>
        <time>2009-11-20T20:32:32Z</time>
      </trkpt>
      <trkpt lat="50.502198" lon="6.092650">
        <ele>692.300000</ele>
        <time>2009-11-20T20:32:38Z</time>
      </trkpt>
      <trkpt lat="50.502155" lon="6.092667">
        <ele>692.300000</ele>
        <time>2009-11-20T20:32:43Z</time>
      </trkpt>
      <trkpt lat="50.502131" lon="6.092636">
        <ele>692.300000</ele>
        <time>2009-11-20T20:32:46Z</time>
      </trkpt>
      <trkpt lat="50.502080" lon="6.092860">
        <ele>692.300000</ele>
        <time>2009-11-20T20:33:00Z</time>
      </trkpt>
      <trkpt lat="50.502058" lon="6.092925">
        <ele>692.300000</ele>
        <time>2009-11-20T20:33:04Z</time>
      </trkpt>
      <trkpt lat="50.501931" lon="6.093056">
        <ele>692.300000</ele>
        <time>2009-11-20T20:33:19Z</time>
      </trkpt>
      <trkpt lat="50.501885" lon="6.093164">
        <ele>692.300000</ele>
        <time>2009-11-20T20:33:27Z</time>
      </trkpt>
      <trkpt lat="50.501869" lon="6.093147">
        <ele>692.300000</ele>
        <time>2009-11-20T20:33:28Z</time>
      </trkpt>
      <trkpt lat="50.501805" lon="6.093018">
        <ele>692.300000</ele>
        <time>2009-11-20T20:33:38Z</time>
      </trkpt>
      <trkpt lat="50.501714" lon="6.092900">
        <ele>692.300000</ele>
        <time>2009-11-20T20:33:49Z</time>
      </trkpt>
      <trkpt lat="50.501718" lon="6.092911">
        <ele>692.300000</ele>
        <time>2009-11-20T20:33:50Z</time>
      </trkpt>
      <trkpt lat="50.501859" lon="6.093005">
        <ele>692.800000</ele>
        <time>2009-11-20T20:34:05Z</time>
      </trkpt>
      <trkpt lat="50.501986" lon="6.093062">
        <ele>692.800000</ele>
        <time>2009-11-20T20:34:17Z</time>
      </trkpt>
      <trkpt lat="50.502059" lon="6.093024">
        <ele>693.200000</ele>
        <time>2009-11-20T20:34:25Z</time>
      </trkpt>
      <trkpt lat="50.502111" lon="6.092971">
        <ele>692.300000</ele>
        <time>2009-11-20T20:34:30Z</time>
      </trkpt>
      <trkpt lat="50.502154" lon="6.092790">
        <ele>692.800000</ele>
        <time>2009-11-20T20:34:42Z</time>
      </trkpt>
      <trkpt lat="50.502134" lon="6.092718">
        <ele>692.800000</ele>
        <time>2009-11-20T20:34:47Z</time>
      </trkpt>
      <trkpt lat="50.502100" lon="6.092664">
        <ele>691.800000</ele>
        <time>2009-11-20T20:34:51Z</time>
      </trkpt>
      <trkpt lat="50.502223" lon="6.092640">
        <ele>692.800000</ele>
        <time>2009-11-20T20:35:03Z</time>
      </trkpt>
      <trkpt lat="50.502293" lon="6.092618">
        <ele>692.300000</ele>
        <time>2009-11-20T20:35:10Z</time>
      </trkpt>
      <trkpt lat="50.502468" lon="6.092670">
        <ele>692.800000</ele>
        <time>2009-11-20T20:35:27Z</time>
      </trkpt>
      <trkpt lat="50.502462" lon="6.092672">
        <ele>693.200000</ele>
        <time>2009-11-20T20:35:27Z</time>
      </trkpt>
      <trkpt lat="50.502515" lon="6.092709">
        <ele>693.200000</ele>
        <time>2009-11-20T20:35:33Z</time>
      </trkpt>
      <trkpt lat="50.502581" lon="6.092756">
        <ele>693.200000</ele>
        <time>2009-11-20T20:35:40Z</time>
      </trkpt>
      <trkpt lat="50.502697" lon="6.092897">
        <ele>692.800000</ele>
        <time>2009-11-20T20:35:54Z</time>
      </trkpt>
      <trkpt lat="50.502788" lon="6.093027">
        <ele>692.800000</ele>
        <time>2009-11-20T20:36:05Z</time>
      </trkpt>
      <trkpt lat="50.502917" lon="6.093227">
        <ele>692.300000</ele>
        <time>2009-11-20T20:36:23Z</time>
      </trkpt>
      <trkpt lat="50.502974" lon="6.093324">
        <ele>692.800000</ele>
        <time>2009-11-20T20:36:30Z</time>
      </trkpt>
      <trkpt lat="50.503029" lon="6.093520">
        <ele>691.800000</ele>
        <time>2009-11-20T20:36:43Z</time>
      </trkpt>
      <trkpt lat="50.503100" lon="6.093658">
        <ele>691.800000</ele>
        <time>2009-11-20T20:36:54Z</time>
      </trkpt>
      <trkpt lat="50.503139" lon="6.093795">
        <ele>691.300000</ele>
        <time>2009-11-20T20:37:03Z</time>
      </trkpt>
      <trkpt lat="50.503311" lon="6.094119">
        <ele>691.300000</ele>
        <time>2009-11-20T20:37:29Z</time>
      </trkpt>
      <trkpt lat="50.503405" lon="6.094316">
        <ele>690.400000</ele>
        <time>2009-11-20T20:37:43Z</time>
      </trkpt>
      <trkpt lat="50.503486" lon="6.094402">
        <ele>689.900000</ele>
        <time>2009-11-20T20:37:53Z</time>
      </trkpt>
      <trkpt lat="50.503469" lon="6.094243">
        <ele>689.400000</ele>
        <time>2009-11-20T20:38:02Z</time>
      </trkpt>
      <trkpt lat="50.503515" lon="6.094101">
        <ele>689.400000</ele>
        <time>2009-11-20T20:38:12Z</time>
      </trkpt>
      <trkpt lat="50.503590" lon="6.093904">
        <ele>689.400000</ele>
        <time>2009-11-20T20:38:26Z</time>
      </trkpt>
      <trkpt lat="50.503721" lon="6.093722">
        <ele>689.400000</ele>
        <time>2009-11-20T20:38:42Z</time>
      </trkpt>
      <trkpt lat="50.503827" lon="6.093586">
        <ele>690.400000</ele>
        <time>2009-11-20T20:38:56Z</time>
      </trkpt>
      <trkpt lat="50.503884" lon="6.093527">
        <ele>689.900000</ele>
        <time>2009-11-20T20:39:02Z</time>
      </trkpt>
      <trkpt lat="50.504094" lon="6.093478">
        <ele>690.400000</ele>
        <time>2009-11-20T20:39:22Z</time>
      </trkpt>
      <trkpt lat="50.504297" lon="6.093492">
        <ele>690.400000</ele>
        <time>2009-11-20T20:39:41Z</time>
      </trkpt>
      <trkpt lat="50.504443" lon="6.093494">
        <ele>689.400000</ele>
        <time>2009-11-20T20:39:55Z</time>
      </trkpt>
      <trkpt lat="50.504615" lon="6.093462">
        <ele>687.500000</ele>
        <time>2009-11-20T20:40:12Z</time>
      </trkpt>
      <trkpt lat="50.504794" lon="6.093493">
        <ele>688.000000</ele>
        <time>2009-11-20T20:40:29Z</time>
      </trkpt>
      <trkpt lat="50.504946" lon="6.093540">
        <ele>687.500000</ele>
        <time>2009-11-20T20:40:43Z</time>
      </trkpt>
      <trkpt lat="50.505132" lon="6.093591">
        <ele>687.000000</ele>
        <time>2009-11-20T20:41:01Z</time>
      </trkpt>
      <trkpt lat="50.505326" lon="6.093630">
        <ele>687.000000</ele>
        <time>2009-11-20T20:41:20Z</time>
      </trkpt>
      <trkpt lat="50.505455" lon="6.093660">
        <ele>686.000000</ele>
        <time>2009-11-20T20:41:32Z</time>
      </trkpt>
      <trkpt lat="50.505649" lon="6.093724">
        <ele>685.100000</ele>
        <time>2009-11-20T20:41:51Z</time>
      </trkpt>
      <trkpt lat="50.505693" lon="6.093730">
        <ele>685.100000</ele>
        <time>2009-11-20T20:41:55Z</time>
      </trkpt>
      <trkpt lat="50.505880" lon="6.093782">
        <ele>683.600000</ele>
        <time>2009-11-20T20:42:13Z</time>
      </trkpt>
      <trkpt lat="50.506088" lon="6.093821">
        <ele>682.200000</ele>
        <time>2009-11-20T20:42:33Z</time>
      </trkpt>
      <trkpt lat="50.506259" lon="6.093858">
        <ele>680.800000</ele>
        <time>2009-11-20T20:42:49Z</time>
      </trkpt>
      <trkpt lat="50.506337" lon="6.093841">
        <ele>680.800000</ele>
        <time>2009-11-20T20:42:57Z</time>
      </trkpt>
      <trkpt lat="50.506512" lon="6.093712">
        <ele>679.800000</ele>
        <time>2009-11-20T20:43:15Z</time>
      </trkpt>
      <trkpt lat="50.506685" lon="6.093565">
        <ele>679.300000</ele>
        <time>2009-11-20T20:43:34Z</time>
      </trkpt>
      <trkpt lat="50.506872" lon="6.093413">
        <ele>679.300000</ele>
        <time>2009-11-20T20:43:54Z</time>
      </trkpt>
      <trkpt lat="50.507037" lon="6.093265">
        <ele>679.300000</ele>
        <time>2009-11-20T20:44:12Z</time>
      </trkpt>
      <trkpt lat="50.507257" lon="6.093077">
        <ele>678.300000</ele>
        <time>2009-11-20T20:44:36Z</time>
      </trkpt>
      <trkpt lat="50.507417" lon="6.092957">
        <ele>678.800000</ele>
        <time>2009-11-20T20:44:52Z</time>
      </trkpt>
      <trkpt lat="50.507570" lon="6.092867">
        <ele>678.300000</ele>
        <time>2009-11-20T20:45:08Z</time>
      </trkpt>
      <trkpt lat="50.507765" lon="6.092685">
        <ele>677.900000</ele>
        <time>2009-11-20T20:45:29Z</time>
      </trkpt>
      <trkpt lat="50.507956" lon="6.092557">
        <ele>677.900000</ele>
        <time>2009-11-20T20:45:49Z</time>
      </trkpt>
      <trkpt lat="50.508130" lon="6.092417">
        <ele>676.900000</ele>
        <time>2009-11-20T20:46:08Z</time>
      </trkpt>
      <trkpt lat="50.508287" lon="6.092284">
        <ele>676.900000</ele>
        <time>2009-11-20T20:46:25Z</time>
      </trkpt>
      <trkpt lat="50.508465" lon="6.092181">
        <ele>676.900000</ele>
        <time>2009-11-20T20:46:43Z</time>
      </trkpt>
      <trkpt lat="50.508620" lon="6.092068">
        <ele>676.400000</ele>
        <time>2009-11-20T20:46:59Z</time>
      </trkpt>
      <trkpt lat="50.508749" lon="6.091850">
        <ele>676.900000</ele>
        <time>2009-11-20T20:47:17Z</time>
      </trkpt>
      <trkpt lat="50.508756" lon="6.091628">
        <ele>676.900000</ele>
        <time>2009-11-20T20:47:30Z</time>
      </trkpt>
      <trkpt lat="50.508769" lon="6.091512">
        <ele>677.900000</ele>
        <time>2009-11-20T20:47:37Z</time>
      </trkpt>
      <trkpt lat="50.508767" lon="6.091464">
        <ele>677.900000</ele>
        <time>2009-11-20T20:47:40Z</time>
      </trkpt>
      <trkpt lat="50.508740" lon="6.091392">
        <ele>678.800000</ele>
        <time>2009-11-20T20:47:45Z</time>
      </trkpt>
      <trkpt lat="50.508714" lon="6.091132">
        <ele>679.800000</ele>
        <time>2009-11-20T20:48:01Z</time>
      </trkpt>
      <trkpt lat="50.508634" lon="6.091031">
        <ele>679.800000</ele>
        <time>2009-11-20T20:48:11Z</time>
      </trkpt>
      <trkpt lat="50.508619" lon="6.090932">
        <ele>679.800000</ele>
        <time>2009-11-20T20:48:17Z</time>
      </trkpt>
      <trkpt lat="50.508684" lon="6.090829">
        <ele>680.300000</ele>
        <time>2009-11-20T20:48:26Z</time>
      </trkpt>
      <trkpt lat="50.508715" lon="6.090655">
        <ele>680.300000</ele>
        <time>2009-11-20T20:48:37Z</time>
      </trkpt>
      <trkpt lat="50.508789" lon="6.090400">
        <ele>679.300000</ele>
        <time>2009-11-20T20:48:53Z</time>
      </trkpt>
      <trkpt lat="50.508794" lon="6.090342">
        <ele>679.800000</ele>
        <time>2009-11-20T20:48:57Z</time>
      </trkpt>
      <trkpt lat="50.508827" lon="6.090287">
        <ele>680.800000</ele>
        <time>2009-11-20T20:49:02Z</time>
      </trkpt>
      <trkpt lat="50.509034" lon="6.090204">
        <ele>680.800000</ele>
        <time>2009-11-20T20:49:22Z</time>
      </trkpt>
      <trkpt lat="50.509124" lon="6.090154">
        <ele>679.800000</ele>
        <time>2009-11-20T20:49:31Z</time>
      </trkpt>
      <trkpt lat="50.509211" lon="6.090154">
        <ele>679.300000</ele>
        <time>2009-11-20T20:49:39Z</time>
      </trkpt>
      <trkpt lat="50.509366" lon="6.090105">
        <ele>679.300000</ele>
        <time>2009-11-20T20:49:54Z</time>
      </trkpt>
      <trkpt lat="50.509397" lon="6.090044">
        <ele>679.300000</ele>
        <time>2009-11-20T20:49:59Z</time>
      </trkpt>
      <trkpt lat="50.509488" lon="6.090049">
        <ele>679.300000</ele>
        <time>2009-11-20T20:50:07Z</time>
      </trkpt>
      <trkpt lat="50.509517" lon="6.090033">
        <ele>679.300000</ele>
        <time>2009-11-20T20:50:10Z</time>
      </trkpt>
      <trkpt lat="50.509541" lon="6.089989">
        <ele>678.800000</ele>
        <time>2009-11-20T20:50:14Z</time>
      </trkpt>
      <trkpt lat="50.509561" lon="6.089908">
        <ele>678.800000</ele>
        <time>2009-11-20T20:50:19Z</time>
      </trkpt>
      <trkpt lat="50.509576" lon="6.089800">
        <ele>679.300000</ele>
        <time>2009-11-20T20:50:26Z</time>
      </trkpt>
      <trkpt lat="50.509632" lon="6.089560">
        <ele>678.800000</ele>
        <time>2009-11-20T20:50:41Z</time>
      </trkpt>
      <trkpt lat="50.509633" lon="6.089498">
        <ele>679.300000</ele>
        <time>2009-11-20T20:50:45Z</time>
      </trkpt>
      <trkpt lat="50.509707" lon="6.089324">
        <ele>679.300000</ele>
        <time>2009-11-20T20:50:58Z</time>
      </trkpt>
      <trkpt lat="50.509794" lon="6.089256">
        <ele>678.800000</ele>
        <time>2009-11-20T20:51:07Z</time>
      </trkpt>
      <trkpt lat="50.509885" lon="6.089121">
        <ele>677.900000</ele>
        <time>2009-11-20T20:51:19Z</time>
      </trkpt>
      <trkpt lat="50.509916" lon="6.089121">
        <ele>678.300000</ele>
        <time>2009-11-20T20:51:22Z</time>
      </trkpt>
      <trkpt lat="50.509939" lon="6.089152">
        <ele>678.800000</ele>
        <time>2009-11-20T20:51:24Z</time>
      </trkpt>
      <trkpt lat="50.509964" lon="6.089107">
        <ele>678.300000</ele>
        <time>2009-11-20T20:51:28Z</time>
      </trkpt>
      <trkpt lat="50.509930" lon="6.089038">
        <ele>679.300000</ele>
        <time>2009-11-20T20:51:33Z</time>
      </trkpt>
      <trkpt lat="50.509945" lon="6.088993">
        <ele>679.300000</ele>
        <time>2009-11-20T20:51:36Z</time>
      </trkpt>
      <trkpt lat="50.510009" lon="6.088951">
        <ele>679.300000</ele>
        <time>2009-11-20T20:51:43Z</time>
      </trkpt>
      <trkpt lat="50.510154" lon="6.088956">
        <ele>676.900000</ele>
        <time>2009-11-20T20:51:57Z</time>
      </trkpt>
      <trkpt lat="50.510280" lon="6.088921">
        <ele>675.900000</ele>
        <time>2009-11-20T20:52:09Z</time>
      </trkpt>
      <trkpt lat="50.510341" lon="6.088942">
        <ele>675.900000</ele>
        <time>2009-11-20T20:52:15Z</time>
      </trkpt>
      <trkpt lat="50.510429" lon="6.088892">
        <ele>675.500000</ele>
        <time>2009-11-20T20:52:24Z</time>
      </trkpt>
      <trkpt lat="50.510542" lon="6.088865">
        <ele>675.500000</ele>
        <time>2009-11-20T20:52:34Z</time>
      </trkpt>
      <trkpt lat="50.510592" lon="6.088825">
        <ele>675.500000</ele>
        <time>2009-11-20T20:52:40Z</time>
      </trkpt>
      <trkpt lat="50.510652" lon="6.088779">
        <ele>675.000000</ele>
        <time>2009-11-20T20:52:46Z</time>
      </trkpt>
      <trkpt lat="50.510707" lon="6.088788">
        <ele>674.500000</ele>
        <time>2009-11-20T20:52:51Z</time>
      </trkpt>
      <trkpt lat="50.510833" lon="6.088723">
        <ele>673.100000</ele>
        <time>2009-11-20T20:53:04Z</time>
      </trkpt>
      <trkpt lat="50.510969" lon="6.088696">
        <ele>672.100000</ele>
        <time>2009-11-20T20:53:17Z</time>
      </trkpt>
      <trkpt lat="50.511126" lon="6.088678">
        <ele>671.100000</ele>
        <time>2009-11-20T20:53:32Z</time>
      </trkpt>
      <trkpt lat="50.511238" lon="6.088602">
        <ele>669.700000</ele>
        <time>2009-11-20T20:53:43Z</time>
      </trkpt>
      <trkpt lat="50.511387" lon="6.088534">
        <ele>669.200000</ele>
        <time>2009-11-20T20:53:58Z</time>
      </trkpt>
      <trkpt lat="50.511451" lon="6.088522">
        <ele>668.300000</ele>
        <time>2009-11-20T20:54:04Z</time>
      </trkpt>
      <trkpt lat="50.511527" lon="6.088534">
        <ele>668.300000</ele>
        <time>2009-11-20T20:54:12Z</time>
      </trkpt>
      <trkpt lat="50.511646" lon="6.088467">
        <ele>667.300000</ele>
        <time>2009-11-20T20:54:23Z</time>
      </trkpt>
      <trkpt lat="50.511699" lon="6.088445">
        <ele>666.800000</ele>
        <time>2009-11-20T20:54:29Z</time>
      </trkpt>
      <trkpt lat="50.511761" lon="6.088432">
        <ele>666.300000</ele>
        <time>2009-11-20T20:54:35Z</time>
      </trkpt>
      <trkpt lat="50.511780" lon="6.088408">
        <ele>666.300000</ele>
        <time>2009-11-20T20:54:37Z</time>
      </trkpt>
      <trkpt lat="50.511925" lon="6.088360">
        <ele>665.400000</ele>
        <time>2009-11-20T20:54:51Z</time>
      </trkpt>
      <trkpt lat="50.512002" lon="6.088354">
        <ele>665.400000</ele>
        <time>2009-11-20T20:54:58Z</time>
      </trkpt>
      <trkpt lat="50.512027" lon="6.088350">
        <ele>665.400000</ele>
        <time>2009-11-20T20:55:01Z</time>
      </trkpt>
      <trkpt lat="50.512151" lon="6.088300">
        <ele>663.900000</ele>
        <time>2009-11-20T20:55:13Z</time>
      </trkpt>
      <trkpt lat="50.512286" lon="6.088290">
        <ele>662.000000</ele>
        <time>2009-11-20T20:55:26Z</time>
      </trkpt>
      <trkpt lat="50.512405" lon="6.088184">
        <ele>661.000000</ele>
        <time>2009-11-20T20:55:39Z</time>
      </trkpt>
      <trkpt lat="50.512420" lon="6.088177">
        <ele>661.000000</ele>
        <time>2009-11-20T20:55:40Z</time>
      </trkpt>
      <trkpt lat="50.512558" lon="6.088176">
        <ele>659.100000</ele>
        <time>2009-11-20T20:55:53Z</time>
      </trkpt>
      <trkpt lat="50.512581" lon="6.088161">
        <ele>659.100000</ele>
        <time>2009-11-20T20:55:56Z</time>
      </trkpt>
      <trkpt lat="50.512740" lon="6.088140">
        <ele>657.200000</ele>
        <time>2009-11-20T20:56:11Z</time>
      </trkpt>
      <trkpt lat="50.512849" lon="6.088148">
        <ele>656.200000</ele>
        <time>2009-11-20T20:56:21Z</time>
      </trkpt>
      <trkpt lat="50.512869" lon="6.088128">
        <ele>656.700000</ele>
        <time>2009-11-20T20:56:23Z</time>
      </trkpt>
      <trkpt lat="50.512906" lon="6.088103">
        <ele>656.700000</ele>
        <time>2009-11-20T20:56:27Z</time>
      </trkpt>
      <trkpt lat="50.513007" lon="6.088047">
        <ele>656.200000</ele>
        <time>2009-11-20T20:56:37Z</time>
      </trkpt>
      <trkpt lat="50.513096" lon="6.088011">
        <ele>656.200000</ele>
        <time>2009-11-20T20:56:46Z</time>
      </trkpt>
      <trkpt lat="50.513232" lon="6.087947">
        <ele>655.800000</ele>
        <time>2009-11-20T20:56:59Z</time>
      </trkpt>
      <trkpt lat="50.513312" lon="6.087929">
        <ele>655.800000</ele>
        <time>2009-11-20T20:57:07Z</time>
      </trkpt>
      <trkpt lat="50.513334" lon="6.087906">
        <ele>654.300000</ele>
        <time>2009-11-20T20:57:10Z</time>
      </trkpt>
      <trkpt lat="50.513384" lon="6.087918">
        <ele>654.300000</ele>
        <time>2009-11-20T20:57:14Z</time>
      </trkpt>
      <trkpt lat="50.513494" lon="6.087908">
        <ele>653.400000</ele>
        <time>2009-11-20T20:57:25Z</time>
      </trkpt>
      <trkpt lat="50.513564" lon="6.087874">
        <ele>652.900000</ele>
        <time>2009-11-20T20:57:32Z</time>
      </trkpt>
      <trkpt lat="50.513608" lon="6.087862">
        <ele>652.400000</ele>
        <time>2009-11-20T20:57:36Z</time>
      </trkpt>
      <trkpt lat="50.513661" lon="6.087817">
        <ele>651.400000</ele>
        <time>2009-11-20T20:57:42Z</time>
      </trkpt>
      <trkpt lat="50.513753" lon="6.087822">
        <ele>651.000000</ele>
        <time>2009-11-20T20:57:50Z</time>
      </trkpt>
      <trkpt lat="50.513879" lon="6.087798">
        <ele>651.400000</ele>
        <time>2009-11-20T20:58:02Z</time>
      </trkpt>
      <trkpt lat="50.513948" lon="6.087823">
        <ele>651.400000</ele>
        <time>2009-11-20T20:58:09Z</time>
      </trkpt>
      <trkpt lat="50.513960" lon="6.087829">
        <ele>651.900000</ele>
        <time>2009-11-20T20:58:10Z</time>
      </trkpt>
      <trkpt lat="50.514008" lon="6.087868">
        <ele>651.400000</ele>
        <time>2009-11-20T20:58:15Z</time>
      </trkpt>
      <trkpt lat="50.514046" lon="6.087889">
        <ele>651.000000</ele>
        <time>2009-11-20T20:58:19Z</time>
      </trkpt>
      <trkpt lat="50.514055" lon="6.087865">
        <ele>651.000000</ele>
        <time>2009-11-20T20:58:21Z</time>
      </trkpt>
      <trkpt lat="50.514093" lon="6.087776">
        <ele>651.900000</ele>
        <time>2009-11-20T20:58:27Z</time>
      </trkpt>
      <trkpt lat="50.514115" lon="6.087769">
        <ele>651.000000</ele>
        <time>2009-11-20T20:58:30Z</time>
      </trkpt>
      <trkpt lat="50.514288" lon="6.087684">
        <ele>650.500000</ele>
        <time>2009-11-20T20:58:47Z</time>
      </trkpt>
      <trkpt lat="50.514444" lon="6.087681">
        <ele>649.000000</ele>
        <time>2009-11-20T20:59:02Z</time>
      </trkpt>
      <trkpt lat="50.514629" lon="6.087640">
        <ele>648.500000</ele>
        <time>2009-11-20T20:59:19Z</time>
      </trkpt>
      <trkpt lat="50.514831" lon="6.087571">
        <ele>648.500000</ele>
        <time>2009-11-20T20:59:39Z</time>
      </trkpt>
      <trkpt lat="50.514972" lon="6.087511">
        <ele>648.100000</ele>
        <time>2009-11-20T20:59:53Z</time>
      </trkpt>
      <trkpt lat="50.515123" lon="6.087442">
        <ele>649.500000</ele>
        <time>2009-11-20T21:00:08Z</time>
      </trkpt>
      <trkpt lat="50.515225" lon="6.087378">
        <ele>648.500000</ele>
        <time>2009-11-20T21:00:18Z</time>
      </trkpt>
      <trkpt lat="50.515398" lon="6.087384">
        <ele>649.500000</ele>
        <time>2009-11-20T21:00:35Z</time>
      </trkpt>
      <trkpt lat="50.515622" lon="6.087307">
        <ele>648.100000</ele>
        <time>2009-11-20T21:00:56Z</time>
      </trkpt>
      <trkpt lat="50.515684" lon="6.087263">
        <ele>649.000000</ele>
        <time>2009-11-20T21:01:03Z</time>
      </trkpt>
      <trkpt lat="50.515770" lon="6.087268">
        <ele>649.000000</ele>
        <time>2009-11-20T21:01:11Z</time>
      </trkpt>
      <trkpt lat="50.515968" lon="6.087205">
        <ele>647.100000</ele>
        <time>2009-11-20T21:01:30Z</time>
      </trkpt>
      <trkpt lat="50.516157" lon="6.087118">
        <ele>647.600000</ele>
        <time>2009-11-20T21:01:49Z</time>
      </trkpt>
      <trkpt lat="50.516282" lon="6.087092">
        <ele>647.100000</ele>
        <time>2009-11-20T21:02:01Z</time>
      </trkpt>
      <trkpt lat="50.516376" lon="6.087059">
        <ele>646.600000</ele>
        <time>2009-11-20T21:02:10Z</time>
      </trkpt>
      <trkpt lat="50.516584" lon="6.087045">
        <ele>647.100000</ele>
        <time>2009-11-20T21:02:29Z</time>
      </trkpt>
      <trkpt lat="50.516776" lon="6.087047">
        <ele>646.100000</ele>
        <time>2009-11-20T21:02:48Z</time>
      </trkpt>
      <trkpt lat="50.516979" lon="6.086981">
        <ele>644.200000</ele>
        <time>2009-11-20T21:03:07Z</time>
      </trkpt>
      <trkpt lat="50.517184" lon="6.086917">
        <ele>644.200000</ele>
        <time>2009-11-20T21:03:27Z</time>
      </trkpt>
      <trkpt lat="50.517214" lon="6.086910">
        <ele>643.700000</ele>
        <time>2009-11-20T21:03:30Z</time>
      </trkpt>
      <trkpt lat="50.517404" lon="6.086840">
        <ele>642.800000</ele>
        <time>2009-11-20T21:03:49Z</time>
      </trkpt>
      <trkpt lat="50.517447" lon="6.086832">
        <ele>641.800000</ele>
        <time>2009-11-20T21:03:53Z</time>
      </trkpt>
      <trkpt lat="50.517614" lon="6.086807">
        <ele>641.300000</ele>
        <time>2009-11-20T21:04:09Z</time>
      </trkpt>
      <trkpt lat="50.517804" lon="6.086764">
        <ele>639.900000</ele>
        <time>2009-11-20T21:04:27Z</time>
      </trkpt>
      <trkpt lat="50.517829" lon="6.086762">
        <ele>639.900000</ele>
        <time>2009-11-20T21:04:29Z</time>
      </trkpt>
      <trkpt lat="50.518027" lon="6.086708">
        <ele>639.900000</ele>
        <time>2009-11-20T21:04:48Z</time>
      </trkpt>
      <trkpt lat="50.518236" lon="6.086635">
        <ele>639.400000</ele>
        <time>2009-11-20T21:05:09Z</time>
      </trkpt>
      <trkpt lat="50.518435" lon="6.086608">
        <ele>639.400000</ele>
        <time>2009-11-20T21:05:27Z</time>
      </trkpt>
      <trkpt lat="50.518476" lon="6.086592">
        <ele>639.400000</ele>
        <time>2009-11-20T21:05:31Z</time>
      </trkpt>
      <trkpt lat="50.518588" lon="6.086588">
        <ele>638.000000</ele>
        <time>2009-11-20T21:05:42Z</time>
      </trkpt>
      <trkpt lat="50.518778" lon="6.086551">
        <ele>638.900000</ele>
        <time>2009-11-20T21:06:00Z</time>
      </trkpt>
      <trkpt lat="50.518979" lon="6.086495">
        <ele>637.500000</ele>
        <time>2009-11-20T21:06:20Z</time>
      </trkpt>
      <trkpt lat="50.519217" lon="6.086446">
        <ele>637.000000</ele>
        <time>2009-11-20T21:06:42Z</time>
      </trkpt>
      <trkpt lat="50.519427" lon="6.086387">
        <ele>637.000000</ele>
        <time>2009-11-20T21:07:03Z</time>
      </trkpt>
      <trkpt lat="50.519627" lon="6.086345">
        <ele>636.500000</ele>
        <time>2009-11-20T21:07:22Z</time>
      </trkpt>
      <trkpt lat="50.519818" lon="6.086282">
        <ele>635.100000</ele>
        <time>2009-11-20T21:07:40Z</time>
      </trkpt>
      <trkpt lat="50.520040" lon="6.086216">
        <ele>634.600000</ele>
        <time>2009-11-20T21:08:02Z</time>
      </trkpt>
      <trkpt lat="50.520274" lon="6.086187">
        <ele>634.600000</ele>
        <time>2009-11-20T21:08:24Z</time>
      </trkpt>
      <trkpt lat="50.520495" lon="6.086130">
        <ele>634.600000</ele>
        <time>2009-11-20T21:08:45Z</time>
      </trkpt>
      <trkpt lat="50.520710" lon="6.086074">
        <ele>634.600000</ele>
        <time>2009-11-20T21:09:06Z</time>
      </trkpt>
      <trkpt lat="50.520930" lon="6.086054">
        <ele>634.100000</ele>
        <time>2009-11-20T21:09:27Z</time>
      </trkpt>
      <trkpt lat="50.521160" lon="6.086026">
        <ele>633.600000</ele>
        <time>2009-11-20T21:09:49Z</time>
      </trkpt>
      <trkpt lat="50.521199" lon="6.086008">
        <ele>633.200000</ele>
        <time>2009-11-20T21:09:52Z</time>
      </trkpt>
      <trkpt lat="50.521354" lon="6.085984">
        <ele>632.700000</ele>
        <time>2009-11-20T21:10:07Z</time>
      </trkpt>
      <trkpt lat="50.521583" lon="6.085922">
        <ele>631.700000</ele>
        <time>2009-11-20T21:10:29Z</time>
      </trkpt>
      <trkpt lat="50.521795" lon="6.085846">
        <ele>631.200000</ele>
        <time>2009-11-20T21:10:50Z</time>
      </trkpt>
      <trkpt lat="50.521796" lon="6.085755">
        <ele>631.700000</ele>
        <time>2009-11-20T21:10:55Z</time>
      </trkpt>
      <trkpt lat="50.521763" lon="6.085479">
        <ele>632.700000</ele>
        <time>2009-11-20T21:11:12Z</time>
      </trkpt>
      <trkpt lat="50.521759" lon="6.085227">
        <ele>633.200000</ele>
        <time>2009-11-20T21:11:28Z</time>
      </trkpt>
      <trkpt lat="50.521770" lon="6.084880">
        <ele>634.600000</ele>
        <time>2009-11-20T21:11:48Z</time>
      </trkpt>
      <trkpt lat="50.521767" lon="6.084549">
        <ele>635.100000</ele>
        <time>2009-11-20T21:12:08Z</time>
      </trkpt>
      <trkpt lat="50.521741" lon="6.084185">
        <ele>636.100000</ele>
        <time>2009-11-20T21:12:30Z</time>
      </trkpt>
      <trkpt lat="50.521748" lon="6.083897">
        <ele>637.000000</ele>
        <time>2009-11-20T21:12:48Z</time>
      </trkpt>
      <trkpt lat="50.521760" lon="6.083573">
        <ele>637.000000</ele>
        <time>2009-11-20T21:13:07Z</time>
      </trkpt>
      <trkpt lat="50.521767" lon="6.083286">
        <ele>638.500000</ele>
        <time>2009-11-20T21:13:25Z</time>
      </trkpt>
      <trkpt lat="50.521758" lon="6.083011">
        <ele>638.500000</ele>
        <time>2009-11-20T21:13:41Z</time>
      </trkpt>
      <trkpt lat="50.521738" lon="6.082756">
        <ele>639.400000</ele>
        <time>2009-11-20T21:13:57Z</time>
      </trkpt>
      <trkpt lat="50.521706" lon="6.082503">
        <ele>639.400000</ele>
        <time>2009-11-20T21:14:12Z</time>
      </trkpt>
      <trkpt lat="50.521679" lon="6.082262">
        <ele>640.400000</ele>
        <time>2009-11-20T21:14:27Z</time>
      </trkpt>
      <trkpt lat="50.521641" lon="6.082018">
        <ele>640.900000</ele>
        <time>2009-11-20T21:14:42Z</time>
      </trkpt>
      <trkpt lat="50.521605" lon="6.081780">
        <ele>641.800000</ele>
        <time>2009-11-20T21:14:57Z</time>
      </trkpt>
      <trkpt lat="50.521577" lon="6.081540">
        <ele>641.800000</ele>
        <time>2009-11-20T21:15:12Z</time>
      </trkpt>
      <trkpt lat="50.521572" lon="6.081405">
        <ele>642.800000</ele>
        <time>2009-11-20T21:15:20Z</time>
      </trkpt>
      <trkpt lat="50.521525" lon="6.081091">
        <ele>643.700000</ele>
        <time>2009-11-20T21:15:39Z</time>
      </trkpt>
      <trkpt lat="50.521471" lon="6.080753">
        <ele>645.700000</ele>
        <time>2009-11-20T21:16:00Z</time>
      </trkpt>
      <trkpt lat="50.521460" lon="6.080698">
        <ele>645.200000</ele>
        <time>2009-11-20T21:16:04Z</time>
      </trkpt>
      <trkpt lat="50.521455" lon="6.080621">
        <ele>645.700000</ele>
        <time>2009-11-20T21:16:09Z</time>
      </trkpt>
      <trkpt lat="50.521464" lon="6.080341">
        <ele>645.700000</ele>
        <time>2009-11-20T21:16:25Z</time>
      </trkpt>
      <trkpt lat="50.521452" lon="6.080030">
        <ele>645.700000</ele>
        <time>2009-11-20T21:16:44Z</time>
      </trkpt>
      <trkpt lat="50.521440" lon="6.079788">
        <ele>646.100000</ele>
        <time>2009-11-20T21:16:59Z</time>
      </trkpt>
      <trkpt lat="50.521429" lon="6.079658">
        <ele>646.100000</ele>
        <time>2009-11-20T21:17:07Z</time>
      </trkpt>
      <trkpt lat="50.521416" lon="6.079383">
        <ele>648.100000</ele>
        <time>2009-11-20T21:17:23Z</time>
      </trkpt>
      <trkpt lat="50.521519" lon="6.079448">
        <ele>648.100000</ele>
        <time>2009-11-20T21:17:34Z</time>
      </trkpt>
      <trkpt lat="50.521530" lon="6.079449">
        <ele>648.100000</ele>
        <time>2009-11-20T21:17:35Z</time>
      </trkpt>
      <trkpt lat="50.521715" lon="6.079595">
        <ele>646.600000</ele>
        <time>2009-11-20T21:17:55Z</time>
      </trkpt>
      <trkpt lat="50.521929" lon="6.079589">
        <ele>646.600000</ele>
        <time>2009-11-20T21:18:15Z</time>
      </trkpt>
      <trkpt lat="50.522119" lon="6.079497">
        <ele>647.600000</ele>
        <time>2009-11-20T21:18:34Z</time>
      </trkpt>
      <trkpt lat="50.522259" lon="6.079434">
        <ele>647.600000</ele>
        <time>2009-11-20T21:18:47Z</time>
      </trkpt>
      <trkpt lat="50.522433" lon="6.079358">
        <ele>649.000000</ele>
        <time>2009-11-20T21:19:05Z</time>
      </trkpt>
      <trkpt lat="50.522670" lon="6.079223">
        <ele>649.500000</ele>
        <time>2009-11-20T21:19:29Z</time>
      </trkpt>
      <trkpt lat="50.522849" lon="6.079059">
        <ele>649.500000</ele>
        <time>2009-11-20T21:19:48Z</time>
      </trkpt>
      <trkpt lat="50.522981" lon="6.078821">
        <ele>651.000000</ele>
        <time>2009-11-20T21:20:07Z</time>
      </trkpt>
      <trkpt lat="50.523126" lon="6.078600">
        <ele>651.900000</ele>
        <time>2009-11-20T21:20:26Z</time>
      </trkpt>
      <trkpt lat="50.523256" lon="6.078317">
        <ele>652.400000</ele>
        <time>2009-11-20T21:20:47Z</time>
      </trkpt>
      <trkpt lat="50.523402" lon="6.078074">
        <ele>653.400000</ele>
        <time>2009-11-20T21:21:08Z</time>
      </trkpt>
      <trkpt lat="50.523449" lon="6.078011">
        <ele>652.900000</ele>
        <time>2009-11-20T21:21:13Z</time>
      </trkpt>
      <trkpt lat="50.523589" lon="6.077888">
        <ele>653.400000</ele>
        <time>2009-11-20T21:21:29Z</time>
      </trkpt>
      <trkpt lat="50.523761" lon="6.077771">
        <ele>655.300000</ele>
        <time>2009-11-20T21:21:46Z</time>
      </trkpt>
      <trkpt lat="50.523941" lon="6.077614">
        <ele>654.800000</ele>
        <time>2009-11-20T21:22:06Z</time>
      </trkpt>
      <trkpt lat="50.524093" lon="6.077403">
        <ele>655.800000</ele>
        <time>2009-11-20T21:22:25Z</time>
      </trkpt>
      <trkpt lat="50.524301" lon="6.077216">
        <ele>656.200000</ele>
        <time>2009-11-20T21:22:48Z</time>
      </trkpt>
      <trkpt lat="50.524468" lon="6.077058">
        <ele>656.700000</ele>
        <time>2009-11-20T21:23:06Z</time>
      </trkpt>
      <trkpt lat="50.524668" lon="6.076897">
        <ele>656.200000</ele>
        <time>2009-11-20T21:23:28Z</time>
      </trkpt>
      <trkpt lat="50.524877" lon="6.076673">
        <ele>656.700000</ele>
        <time>2009-11-20T21:23:52Z</time>
      </trkpt>
      <trkpt lat="50.524939" lon="6.076527">
        <ele>657.200000</ele>
        <time>2009-11-20T21:24:02Z</time>
      </trkpt>
      <trkpt lat="50.524869" lon="6.076401">
        <ele>656.700000</ele>
        <time>2009-11-20T21:24:12Z</time>
      </trkpt>
      <trkpt lat="50.524719" lon="6.076211">
        <ele>656.700000</ele>
        <time>2009-11-20T21:24:31Z</time>
      </trkpt>
      <trkpt lat="50.524586" lon="6.076063">
        <ele>659.100000</ele>
        <time>2009-11-20T21:24:46Z</time>
      </trkpt>
      <trkpt lat="50.524393" lon="6.075854">
        <ele>659.100000</ele>
        <time>2009-11-20T21:25:08Z</time>
      </trkpt>
      <trkpt lat="50.524235" lon="6.075701">
        <ele>660.100000</ele>
        <time>2009-11-20T21:25:26Z</time>
      </trkpt>
      <trkpt lat="50.524059" lon="6.075506">
        <ele>660.100000</ele>
        <time>2009-11-20T21:25:46Z</time>
      </trkpt>
      <trkpt lat="50.523901" lon="6.075362">
        <ele>660.600000</ele>
        <time>2009-11-20T21:26:04Z</time>
      </trkpt>
      <trkpt lat="50.523750" lon="6.075105">
        <ele>660.600000</ele>
        <time>2009-11-20T21:26:25Z</time>
      </trkpt>
      <trkpt lat="50.523695" lon="6.075005">
        <ele>660.100000</ele>
        <time>2009-11-20T21:26:33Z</time>
      </trkpt>
      <trkpt lat="50.523516" lon="6.074771">
        <ele>660.600000</ele>
        <time>2009-11-20T21:26:55Z</time>
      </trkpt>
      <trkpt lat="50.523388" lon="6.074598">
        <ele>661.000000</ele>
        <time>2009-11-20T21:27:11Z</time>
      </trkpt>
      <trkpt lat="50.523240" lon="6.074378">
        <ele>660.100000</ele>
        <time>2009-11-20T21:27:30Z</time>
      </trkpt>
      <trkpt lat="50.523060" lon="6.074160">
        <ele>660.100000</ele>
        <time>2009-11-20T21:27:52Z</time>
      </trkpt>
      <trkpt lat="50.522979" lon="6.074025">
        <ele>661.500000</ele>
        <time>2009-11-20T21:28:03Z</time>
      </trkpt>
      <trkpt lat="50.522833" lon="6.073783">
        <ele>661.500000</ele>
        <time>2009-11-20T21:28:23Z</time>
      </trkpt>
      <trkpt lat="50.522683" lon="6.073545">
        <ele>662.500000</ele>
        <time>2009-11-20T21:28:43Z</time>
      </trkpt>
      <trkpt lat="50.522548" lon="6.073319">
        <ele>663.000000</ele>
        <time>2009-11-20T21:29:02Z</time>
      </trkpt>
      <trkpt lat="50.522431" lon="6.073096">
        <ele>664.400000</ele>
        <time>2009-11-20T21:29:19Z</time>
      </trkpt>
      <trkpt lat="50.522290" lon="6.072872">
        <ele>664.900000</ele>
        <time>2009-11-20T21:29:38Z</time>
      </trkpt>
      <trkpt lat="50.522155" lon="6.072667">
        <ele>666.300000</ele>
        <time>2009-11-20T21:29:56Z</time>
      </trkpt>
      <trkpt lat="50.521980" lon="6.072479">
        <ele>666.300000</ele>
        <time>2009-11-20T21:30:16Z</time>
      </trkpt>
      <trkpt lat="50.521802" lon="6.072305">
        <ele>666.300000</ele>
        <time>2009-11-20T21:30:36Z</time>
      </trkpt>
      <trkpt lat="50.521673" lon="6.072149">
        <ele>666.300000</ele>
        <time>2009-11-20T21:30:51Z</time>
      </trkpt>
      <trkpt lat="50.521521" lon="6.071950">
        <ele>666.800000</ele>
        <time>2009-11-20T21:31:10Z</time>
      </trkpt>
      <trkpt lat="50.521366" lon="6.071763">
        <ele>666.300000</ele>
        <time>2009-11-20T21:31:29Z</time>
      </trkpt>
      <trkpt lat="50.521249" lon="6.071656">
        <ele>666.800000</ele>
        <time>2009-11-20T21:31:42Z</time>
      </trkpt>
      <trkpt lat="50.521060" lon="6.071450">
        <ele>668.700000</ele>
        <time>2009-11-20T21:32:03Z</time>
      </trkpt>
      <trkpt lat="50.520995" lon="6.071400">
        <ele>669.200000</ele>
        <time>2009-11-20T21:32:10Z</time>
      </trkpt>
      <trkpt lat="50.520872" lon="6.071275">
        <ele>669.700000</ele>
        <time>2009-11-20T21:32:24Z</time>
      </trkpt>
      <trkpt lat="50.520719" lon="6.071100">
        <ele>669.700000</ele>
        <time>2009-11-20T21:32:42Z</time>
      </trkpt>
      <trkpt lat="50.520543" lon="6.070861">
        <ele>671.100000</ele>
        <time>2009-11-20T21:33:04Z</time>
      </trkpt>
      <trkpt lat="50.520399" lon="6.070646">
        <ele>670.700000</ele>
        <time>2009-11-20T21:33:23Z</time>
      </trkpt>
      <trkpt lat="50.520258" lon="6.070409">
        <ele>670.700000</ele>
        <time>2009-11-20T21:33:42Z</time>
      </trkpt>
      <trkpt lat="50.520185" lon="6.070294">
        <ele>671.600000</ele>
        <time>2009-11-20T21:33:52Z</time>
      </trkpt>
      <trkpt lat="50.520031" lon="6.070114">
        <ele>671.600000</ele>
        <time>2009-11-20T21:34:10Z</time>
      </trkpt>
      <trkpt lat="50.519902" lon="6.069887">
        <ele>670.700000</ele>
        <time>2009-11-20T21:34:29Z</time>
      </trkpt>
      <trkpt lat="50.519793" lon="6.069600">
        <ele>672.100000</ele>
        <time>2009-11-20T21:34:49Z</time>
      </trkpt>
      <trkpt lat="50.519685" lon="6.069353">
        <ele>673.500000</ele>
        <time>2009-11-20T21:35:07Z</time>
      </trkpt>
      <trkpt lat="50.519572" lon="6.069108">
        <ele>673.500000</ele>
        <time>2009-11-20T21:35:25Z</time>
      </trkpt>
      <trkpt lat="50.519458" lon="6.068824">
        <ele>675.000000</ele>
        <time>2009-11-20T21:35:46Z</time>
      </trkpt>
      <trkpt lat="50.519380" lon="6.068623">
        <ele>675.000000</ele>
        <time>2009-11-20T21:36:00Z</time>
      </trkpt>
      <trkpt lat="50.519372" lon="6.068583">
        <ele>675.000000</ele>
        <time>2009-11-20T21:36:02Z</time>
      </trkpt>
      <trkpt lat="50.519336" lon="6.068262">
        <ele>675.000000</ele>
        <time>2009-11-20T21:36:22Z</time>
      </trkpt>
      <trkpt lat="50.519316" lon="6.067951">
        <ele>675.000000</ele>
        <time>2009-11-20T21:36:41Z</time>
      </trkpt>
      <trkpt lat="50.519287" lon="6.067623">
        <ele>675.000000</ele>
        <time>2009-11-20T21:37:01Z</time>
      </trkpt>
      <trkpt lat="50.519285" lon="6.067462">
        <ele>675.000000</ele>
        <time>2009-11-20T21:37:10Z</time>
      </trkpt>
      <trkpt lat="50.519292" lon="6.067324">
        <ele>674.500000</ele>
        <time>2009-11-20T21:37:19Z</time>
      </trkpt>
      <trkpt lat="50.519286" lon="6.067224">
        <ele>675.000000</ele>
        <time>2009-11-20T21:37:25Z</time>
      </trkpt>
      <trkpt lat="50.519280" lon="6.066985">
        <ele>675.000000</ele>
        <time>2009-11-20T21:37:39Z</time>
      </trkpt>
      <trkpt lat="50.519276" lon="6.066869">
        <ele>675.000000</ele>
        <time>2009-11-20T21:37:46Z</time>
      </trkpt>
      <trkpt lat="50.519230" lon="6.066637">
        <ele>675.000000</ele>
        <time>2009-11-20T21:38:01Z</time>
      </trkpt>
      <trkpt lat="50.519244" lon="6.066457">
        <ele>675.900000</ele>
        <time>2009-11-20T21:38:12Z</time>
      </trkpt>
      <trkpt lat="50.519204" lon="6.066206">
        <ele>675.500000</ele>
        <time>2009-11-20T21:38:27Z</time>
      </trkpt>
      <trkpt lat="50.519193" lon="6.065864">
        <ele>675.000000</ele>
        <time>2009-11-20T21:38:48Z</time>
      </trkpt>
      <trkpt lat="50.519187" lon="6.065575">
        <ele>675.500000</ele>
        <time>2009-11-20T21:39:06Z</time>
      </trkpt>
      <trkpt lat="50.519175" lon="6.065382">
        <ele>675.000000</ele>
        <time>2009-11-20T21:39:17Z</time>
      </trkpt>
      <trkpt lat="50.519159" lon="6.065022">
        <ele>675.000000</ele>
        <time>2009-11-20T21:39:39Z</time>
      </trkpt>
      <trkpt lat="50.519154" lon="6.064685">
        <ele>674.500000</ele>
        <time>2009-11-20T21:39:59Z</time>
      </trkpt>
      <trkpt lat="50.519141" lon="6.064378">
        <ele>674.000000</ele>
        <time>2009-11-20T21:40:18Z</time>
      </trkpt>
      <trkpt lat="50.519159" lon="6.064086">
        <ele>673.500000</ele>
        <time>2009-11-20T21:40:36Z</time>
      </trkpt>
      <trkpt lat="50.519139" lon="6.063800">
        <ele>674.000000</ele>
        <time>2009-11-20T21:40:53Z</time>
      </trkpt>
      <trkpt lat="50.519113" lon="6.063657">
        <ele>673.500000</ele>
        <time>2009-11-20T21:41:02Z</time>
      </trkpt>
      <trkpt lat="50.519083" lon="6.063607">
        <ele>673.100000</ele>
        <time>2009-11-20T21:41:06Z</time>
      </trkpt>
      <trkpt lat="50.519115" lon="6.063495">
        <ele>673.500000</ele>
        <time>2009-11-20T21:41:13Z</time>
      </trkpt>
      <trkpt lat="50.519156" lon="6.063396">
        <ele>673.500000</ele>
        <time>2009-11-20T21:41:21Z</time>
      </trkpt>
      <trkpt lat="50.519183" lon="6.063337">
        <ele>672.600000</ele>
        <time>2009-11-20T21:41:25Z</time>
      </trkpt>
    </trkseg>
  </trk>

</gpx>
